<?xml version="1.0" encoding="UTF-8" standalone="no" ?>
<gpx xmlns="http://www.topografix.com/GPX/1/1" xmlns:xsi="http://www.w3.org/2001/XMLSchema-instance" xsi:schemaLocation="http://www.topografix.com/GPX/1/1 http://www.topografix.com/GPX/1/1/gpx.xsd" version="1.1" creator="VisuGPX - https://www.visugpx.com">
  <metadata>
    <name>rando beychac et caillaux 11.7 km</name>
    <desc><![CDATA[bonne rando de la route des vignes et un denivelé]]></desc>
  </metadata>
  <trk>
    <name><![CDATA[rando beychac et caillau 12 km]]></name>
    <trkseg>
      <trkpt lat="44.86966" lon="-0.37114">
        <ele>-9</ele>
        <time>2015-03-11T12:41:40Z</time>
      </trkpt>
      <trkpt lat="44.86966" lon="-0.37114">
        <ele>-4</ele>
        <time>2015-03-11T12:41:41Z</time>
      </trkpt>
      <trkpt lat="44.86966" lon="-0.37115">
        <ele>-7</ele>
        <time>2015-03-11T12:41:43Z</time>
      </trkpt>
      <trkpt lat="44.86967" lon="-0.37118">
        <ele>-3</ele>
        <time>2015-03-11T12:41:57Z</time>
      </trkpt>
      <trkpt lat="44.86967" lon="-0.37116">
        <ele>1</ele>
        <time>2015-03-11T12:42:00Z</time>
      </trkpt>
      <trkpt lat="44.86967" lon="-0.37116">
        <ele>5</ele>
        <time>2015-03-11T12:42:03Z</time>
      </trkpt>
      <trkpt lat="44.86968" lon="-0.37116">
        <ele>9</ele>
        <time>2015-03-11T12:42:06Z</time>
      </trkpt>
      <trkpt lat="44.86968" lon="-0.37115">
        <ele>12</ele>
        <time>2015-03-11T12:42:09Z</time>
      </trkpt>
      <trkpt lat="44.86968" lon="-0.37115">
        <ele>16</ele>
        <time>2015-03-11T12:42:13Z</time>
      </trkpt>
      <trkpt lat="44.86968" lon="-0.37115">
        <ele>20</ele>
        <time>2015-03-11T12:42:17Z</time>
      </trkpt>
      <trkpt lat="44.86967" lon="-0.37115">
        <ele>23</ele>
        <time>2015-03-11T12:42:21Z</time>
      </trkpt>
      <trkpt lat="44.86967" lon="-0.37116">
        <ele>27</ele>
        <time>2015-03-11T12:42:26Z</time>
      </trkpt>
      <trkpt lat="44.86967" lon="-0.37115">
        <ele>30</ele>
        <time>2015-03-11T12:42:32Z</time>
      </trkpt>
      <trkpt lat="44.86966" lon="-0.37116">
        <ele>33</ele>
        <time>2015-03-11T12:42:38Z</time>
      </trkpt>
      <trkpt lat="44.86966" lon="-0.37115">
        <ele>36</ele>
        <time>2015-03-11T12:42:46Z</time>
      </trkpt>
      <trkpt lat="44.86967" lon="-0.37116">
        <ele>40</ele>
        <time>2015-03-11T12:42:56Z</time>
      </trkpt>
      <trkpt lat="44.86969" lon="-0.37115">
        <ele>42</ele>
        <time>2015-03-11T12:43:14Z</time>
      </trkpt>
      <trkpt lat="44.86969" lon="-0.37115">
        <ele>43</ele>
        <time>2015-03-11T12:43:31Z</time>
      </trkpt>
      <trkpt lat="44.86968" lon="-0.37115">
        <ele>44</ele>
        <time>2015-03-11T12:43:47Z</time>
      </trkpt>
      <trkpt lat="44.86968" lon="-0.37115">
        <ele>44</ele>
        <time>2015-03-11T12:44:12Z</time>
      </trkpt>
      <trkpt lat="44.86965" lon="-0.37119">
        <ele>44</ele>
        <time>2015-03-11T12:44:26Z</time>
      </trkpt>
      <trkpt lat="44.86963" lon="-0.37125">
        <ele>44</ele>
        <time>2015-03-11T12:44:33Z</time>
      </trkpt>
      <trkpt lat="44.86955" lon="-0.37133">
        <ele>44</ele>
        <time>2015-03-11T12:44:41Z</time>
      </trkpt>
      <trkpt lat="44.86954" lon="-0.37143">
        <ele>45</ele>
        <time>2015-03-11T12:44:46Z</time>
      </trkpt>
      <trkpt lat="44.8695" lon="-0.37148">
        <ele>46</ele>
        <time>2015-03-11T12:44:50Z</time>
      </trkpt>
      <trkpt lat="44.86939" lon="-0.37165">
        <ele>46</ele>
        <time>2015-03-11T12:45:08Z</time>
      </trkpt>
      <trkpt lat="44.86927" lon="-0.37191">
        <ele>48</ele>
        <time>2015-03-11T12:45:29Z</time>
      </trkpt>
      <trkpt lat="44.86913" lon="-0.37185">
        <ele>49</ele>
        <time>2015-03-11T12:45:46Z</time>
      </trkpt>
      <trkpt lat="44.86895" lon="-0.37157">
        <ele>50</ele>
        <time>2015-03-11T12:46:01Z</time>
      </trkpt>
      <trkpt lat="44.86878" lon="-0.3714">
        <ele>51</ele>
        <time>2015-03-11T12:46:19Z</time>
      </trkpt>
      <trkpt lat="44.86864" lon="-0.37137">
        <ele>52</ele>
        <time>2015-03-11T12:46:32Z</time>
      </trkpt>
      <trkpt lat="44.86833" lon="-0.37151">
        <ele>53</ele>
        <time>2015-03-11T12:46:53Z</time>
      </trkpt>
      <trkpt lat="44.86811" lon="-0.37156">
        <ele>54</ele>
        <time>2015-03-11T12:47:08Z</time>
      </trkpt>
      <trkpt lat="44.86802" lon="-0.3716">
        <ele>53</ele>
        <time>2015-03-11T12:47:16Z</time>
      </trkpt>
      <trkpt lat="44.86791" lon="-0.37166">
        <ele>54</ele>
        <time>2015-03-11T12:47:30Z</time>
      </trkpt>
      <trkpt lat="44.86775" lon="-0.37168">
        <ele>55</ele>
        <time>2015-03-11T12:47:44Z</time>
      </trkpt>
      <trkpt lat="44.86772" lon="-0.37169">
        <ele>55</ele>
        <time>2015-03-11T12:47:46Z</time>
      </trkpt>
      <trkpt lat="44.86763" lon="-0.37171">
        <ele>55</ele>
        <time>2015-03-11T12:47:53Z</time>
      </trkpt>
      <trkpt lat="44.86761" lon="-0.37173">
        <ele>56</ele>
        <time>2015-03-11T12:47:55Z</time>
      </trkpt>
      <trkpt lat="44.86755" lon="-0.37177">
        <ele>56</ele>
        <time>2015-03-11T12:48:09Z</time>
      </trkpt>
      <trkpt lat="44.86757" lon="-0.37179">
        <ele>56</ele>
        <time>2015-03-11T12:48:31Z</time>
      </trkpt>
      <trkpt lat="44.86758" lon="-0.37185">
        <ele>56</ele>
        <time>2015-03-11T12:48:35Z</time>
      </trkpt>
      <trkpt lat="44.86758" lon="-0.37198">
        <ele>57</ele>
        <time>2015-03-11T12:48:43Z</time>
      </trkpt>
      <trkpt lat="44.86768" lon="-0.37208">
        <ele>57</ele>
        <time>2015-03-11T12:48:56Z</time>
      </trkpt>
      <trkpt lat="44.86769" lon="-0.37211">
        <ele>57</ele>
        <time>2015-03-11T12:48:57Z</time>
      </trkpt>
      <trkpt lat="44.8677" lon="-0.37216">
        <ele>57</ele>
        <time>2015-03-11T12:48:59Z</time>
      </trkpt>
      <trkpt lat="44.86778" lon="-0.37224">
        <ele>57</ele>
        <time>2015-03-11T12:49:06Z</time>
      </trkpt>
      <trkpt lat="44.86781" lon="-0.37249">
        <ele>58</ele>
        <time>2015-03-11T12:49:20Z</time>
      </trkpt>
      <trkpt lat="44.86777" lon="-0.37271">
        <ele>59</ele>
        <time>2015-03-11T12:49:32Z</time>
      </trkpt>
      <trkpt lat="44.86768" lon="-0.37295">
        <ele>58</ele>
        <time>2015-03-11T12:49:47Z</time>
      </trkpt>
      <trkpt lat="44.86757" lon="-0.37297">
        <ele>58</ele>
        <time>2015-03-11T12:49:55Z</time>
      </trkpt>
      <trkpt lat="44.86754" lon="-0.37298">
        <ele>58</ele>
        <time>2015-03-11T12:49:57Z</time>
      </trkpt>
      <trkpt lat="44.86742" lon="-0.37301">
        <ele>59</ele>
        <time>2015-03-11T12:50:07Z</time>
      </trkpt>
      <trkpt lat="44.86727" lon="-0.37304">
        <ele>59</ele>
        <time>2015-03-11T12:50:20Z</time>
      </trkpt>
      <trkpt lat="44.86726" lon="-0.37305">
        <ele>59</ele>
        <time>2015-03-11T12:50:21Z</time>
      </trkpt>
      <trkpt lat="44.86723" lon="-0.37307">
        <ele>59</ele>
        <time>2015-03-11T12:50:23Z</time>
      </trkpt>
      <trkpt lat="44.86714" lon="-0.37313">
        <ele>59</ele>
        <time>2015-03-11T12:50:29Z</time>
      </trkpt>
      <trkpt lat="44.86699" lon="-0.37326">
        <ele>60</ele>
        <time>2015-03-11T12:50:41Z</time>
      </trkpt>
      <trkpt lat="44.86695" lon="-0.37332">
        <ele>60</ele>
        <time>2015-03-11T12:50:46Z</time>
      </trkpt>
      <trkpt lat="44.86688" lon="-0.37339">
        <ele>61</ele>
        <time>2015-03-11T12:50:51Z</time>
      </trkpt>
      <trkpt lat="44.8668" lon="-0.37346">
        <ele>62</ele>
        <time>2015-03-11T12:51:02Z</time>
      </trkpt>
      <trkpt lat="44.86669" lon="-0.37359">
        <ele>62</ele>
        <time>2015-03-11T12:51:14Z</time>
      </trkpt>
      <trkpt lat="44.86666" lon="-0.37362">
        <ele>62</ele>
        <time>2015-03-11T12:51:17Z</time>
      </trkpt>
      <trkpt lat="44.86657" lon="-0.37369">
        <ele>63</ele>
        <time>2015-03-11T12:51:24Z</time>
      </trkpt>
      <trkpt lat="44.86647" lon="-0.37379">
        <ele>63</ele>
        <time>2015-03-11T12:51:33Z</time>
      </trkpt>
      <trkpt lat="44.86639" lon="-0.37386">
        <ele>63</ele>
        <time>2015-03-11T12:51:41Z</time>
      </trkpt>
      <trkpt lat="44.86638" lon="-0.37388">
        <ele>63</ele>
        <time>2015-03-11T12:51:43Z</time>
      </trkpt>
      <trkpt lat="44.86635" lon="-0.3739">
        <ele>63</ele>
        <time>2015-03-11T12:51:46Z</time>
      </trkpt>
      <trkpt lat="44.86622" lon="-0.37401">
        <ele>63</ele>
        <time>2015-03-11T12:51:59Z</time>
      </trkpt>
      <trkpt lat="44.86609" lon="-0.37413">
        <ele>63</ele>
        <time>2015-03-11T12:52:10Z</time>
      </trkpt>
      <trkpt lat="44.86606" lon="-0.37417">
        <ele>63</ele>
        <time>2015-03-11T12:52:14Z</time>
      </trkpt>
      <trkpt lat="44.86592" lon="-0.37427">
        <ele>63</ele>
        <time>2015-03-11T12:52:25Z</time>
      </trkpt>
      <trkpt lat="44.86591" lon="-0.37428">
        <ele>64</ele>
        <time>2015-03-11T12:52:26Z</time>
      </trkpt>
      <trkpt lat="44.86579" lon="-0.37439">
        <ele>64</ele>
        <time>2015-03-11T12:52:38Z</time>
      </trkpt>
      <trkpt lat="44.86574" lon="-0.37456">
        <ele>66</ele>
        <time>2015-03-11T12:52:49Z</time>
      </trkpt>
      <trkpt lat="44.86574" lon="-0.37465">
        <ele>65</ele>
        <time>2015-03-11T12:52:55Z</time>
      </trkpt>
      <trkpt lat="44.86574" lon="-0.37472">
        <ele>65</ele>
        <time>2015-03-11T12:52:59Z</time>
      </trkpt>
      <trkpt lat="44.86573" lon="-0.37481">
        <ele>66</ele>
        <time>2015-03-11T12:53:05Z</time>
      </trkpt>
      <trkpt lat="44.86572" lon="-0.37497">
        <ele>65</ele>
        <time>2015-03-11T12:53:15Z</time>
      </trkpt>
      <trkpt lat="44.8657" lon="-0.37504">
        <ele>65</ele>
        <time>2015-03-11T12:53:19Z</time>
      </trkpt>
      <trkpt lat="44.8657" lon="-0.37512">
        <ele>65</ele>
        <time>2015-03-11T12:53:23Z</time>
      </trkpt>
      <trkpt lat="44.8657" lon="-0.37518">
        <ele>66</ele>
        <time>2015-03-11T12:53:27Z</time>
      </trkpt>
      <trkpt lat="44.86565" lon="-0.37545">
        <ele>66</ele>
        <time>2015-03-11T12:53:41Z</time>
      </trkpt>
      <trkpt lat="44.86562" lon="-0.37566">
        <ele>66</ele>
        <time>2015-03-11T12:53:52Z</time>
      </trkpt>
      <trkpt lat="44.86561" lon="-0.3758">
        <ele>67</ele>
        <time>2015-03-11T12:54:00Z</time>
      </trkpt>
      <trkpt lat="44.86557" lon="-0.37603">
        <ele>67</ele>
        <time>2015-03-11T12:54:13Z</time>
      </trkpt>
      <trkpt lat="44.86558" lon="-0.37614">
        <ele>67</ele>
        <time>2015-03-11T12:54:22Z</time>
      </trkpt>
      <trkpt lat="44.86556" lon="-0.37626">
        <ele>68</ele>
        <time>2015-03-11T12:54:29Z</time>
      </trkpt>
      <trkpt lat="44.86557" lon="-0.37636">
        <ele>68</ele>
        <time>2015-03-11T12:54:34Z</time>
      </trkpt>
      <trkpt lat="44.86554" lon="-0.37648">
        <ele>68</ele>
        <time>2015-03-11T12:54:41Z</time>
      </trkpt>
      <trkpt lat="44.8655" lon="-0.37678">
        <ele>69</ele>
        <time>2015-03-11T12:54:56Z</time>
      </trkpt>
      <trkpt lat="44.86548" lon="-0.37686">
        <ele>69</ele>
        <time>2015-03-11T12:55:00Z</time>
      </trkpt>
      <trkpt lat="44.86547" lon="-0.37689">
        <ele>69</ele>
        <time>2015-03-11T12:55:02Z</time>
      </trkpt>
      <trkpt lat="44.86547" lon="-0.377">
        <ele>70</ele>
        <time>2015-03-11T12:55:08Z</time>
      </trkpt>
      <trkpt lat="44.86545" lon="-0.37711">
        <ele>70</ele>
        <time>2015-03-11T12:55:15Z</time>
      </trkpt>
      <trkpt lat="44.86544" lon="-0.37732">
        <ele>71</ele>
        <time>2015-03-11T12:55:27Z</time>
      </trkpt>
      <trkpt lat="44.86547" lon="-0.37735">
        <ele>72</ele>
        <time>2015-03-11T12:55:31Z</time>
      </trkpt>
      <trkpt lat="44.86553" lon="-0.37736">
        <ele>71</ele>
        <time>2015-03-11T12:55:36Z</time>
      </trkpt>
      <trkpt lat="44.86556" lon="-0.37735">
        <ele>71</ele>
        <time>2015-03-11T12:55:38Z</time>
      </trkpt>
      <trkpt lat="44.86562" lon="-0.37739">
        <ele>71</ele>
        <time>2015-03-11T12:55:44Z</time>
      </trkpt>
      <trkpt lat="44.86579" lon="-0.37742">
        <ele>71</ele>
        <time>2015-03-11T12:55:55Z</time>
      </trkpt>
      <trkpt lat="44.86583" lon="-0.37744">
        <ele>72</ele>
        <time>2015-03-11T12:55:58Z</time>
      </trkpt>
      <trkpt lat="44.8659" lon="-0.37746">
        <ele>71</ele>
        <time>2015-03-11T12:56:05Z</time>
      </trkpt>
      <trkpt lat="44.86604" lon="-0.37749">
        <ele>70</ele>
        <time>2015-03-11T12:56:17Z</time>
      </trkpt>
      <trkpt lat="44.86612" lon="-0.37751">
        <ele>70</ele>
        <time>2015-03-11T12:56:27Z</time>
      </trkpt>
      <trkpt lat="44.86627" lon="-0.37754">
        <ele>70</ele>
        <time>2015-03-11T12:56:39Z</time>
      </trkpt>
      <trkpt lat="44.86634" lon="-0.37756">
        <ele>70</ele>
        <time>2015-03-11T12:56:43Z</time>
      </trkpt>
      <trkpt lat="44.86648" lon="-0.3776">
        <ele>70</ele>
        <time>2015-03-11T12:56:56Z</time>
      </trkpt>
      <trkpt lat="44.86653" lon="-0.37769">
        <ele>69</ele>
        <time>2015-03-11T12:57:09Z</time>
      </trkpt>
      <trkpt lat="44.86653" lon="-0.37772">
        <ele>69</ele>
        <time>2015-03-11T12:57:30Z</time>
      </trkpt>
      <trkpt lat="44.86652" lon="-0.37772">
        <ele>69</ele>
        <time>2015-03-11T12:57:45Z</time>
      </trkpt>
      <trkpt lat="44.86649" lon="-0.37773">
        <ele>70</ele>
        <time>2015-03-11T12:57:59Z</time>
      </trkpt>
      <trkpt lat="44.86649" lon="-0.37773">
        <ele>70</ele>
        <time>2015-03-11T12:58:24Z</time>
      </trkpt>
      <trkpt lat="44.86649" lon="-0.37773">
        <ele>70</ele>
        <time>2015-03-11T12:58:46Z</time>
      </trkpt>
      <trkpt lat="44.86649" lon="-0.37773">
        <ele>70</ele>
        <time>2015-03-11T12:59:14Z</time>
      </trkpt>
      <trkpt lat="44.86649" lon="-0.3778">
        <ele>70</ele>
        <time>2015-03-11T12:59:33Z</time>
      </trkpt>
      <trkpt lat="44.86648" lon="-0.37793">
        <ele>70</ele>
        <time>2015-03-11T12:59:41Z</time>
      </trkpt>
      <trkpt lat="44.86647" lon="-0.37812">
        <ele>71</ele>
        <time>2015-03-11T12:59:51Z</time>
      </trkpt>
      <trkpt lat="44.86645" lon="-0.37829">
        <ele>71</ele>
        <time>2015-03-11T13:00:03Z</time>
      </trkpt>
      <trkpt lat="44.86657" lon="-0.37838">
        <ele>71</ele>
        <time>2015-03-11T13:00:14Z</time>
      </trkpt>
      <trkpt lat="44.86662" lon="-0.3784">
        <ele>71</ele>
        <time>2015-03-11T13:00:17Z</time>
      </trkpt>
      <trkpt lat="44.86671" lon="-0.37841">
        <ele>71</ele>
        <time>2015-03-11T13:00:25Z</time>
      </trkpt>
      <trkpt lat="44.86684" lon="-0.37846">
        <ele>71</ele>
        <time>2015-03-11T13:00:34Z</time>
      </trkpt>
      <trkpt lat="44.86696" lon="-0.37851">
        <ele>70</ele>
        <time>2015-03-11T13:00:45Z</time>
      </trkpt>
      <trkpt lat="44.867" lon="-0.37852">
        <ele>70</ele>
        <time>2015-03-11T13:00:47Z</time>
      </trkpt>
      <trkpt lat="44.86713" lon="-0.3786">
        <ele>70</ele>
        <time>2015-03-11T13:00:58Z</time>
      </trkpt>
      <trkpt lat="44.86724" lon="-0.37868">
        <ele>70</ele>
        <time>2015-03-11T13:01:08Z</time>
      </trkpt>
      <trkpt lat="44.86733" lon="-0.37875">
        <ele>70</ele>
        <time>2015-03-11T13:01:17Z</time>
      </trkpt>
      <trkpt lat="44.86746" lon="-0.3788">
        <ele>70</ele>
        <time>2015-03-11T13:01:29Z</time>
      </trkpt>
      <trkpt lat="44.86762" lon="-0.37886">
        <ele>70</ele>
        <time>2015-03-11T13:01:41Z</time>
      </trkpt>
      <trkpt lat="44.86772" lon="-0.37891">
        <ele>69</ele>
        <time>2015-03-11T13:01:52Z</time>
      </trkpt>
      <trkpt lat="44.86773" lon="-0.37892">
        <ele>69</ele>
        <time>2015-03-11T13:01:53Z</time>
      </trkpt>
      <trkpt lat="44.86784" lon="-0.37895">
        <ele>69</ele>
        <time>2015-03-11T13:02:06Z</time>
      </trkpt>
      <trkpt lat="44.86785" lon="-0.37896">
        <ele>69</ele>
        <time>2015-03-11T13:02:07Z</time>
      </trkpt>
      <trkpt lat="44.86792" lon="-0.37898">
        <ele>69</ele>
        <time>2015-03-11T13:02:13Z</time>
      </trkpt>
      <trkpt lat="44.86804" lon="-0.37902">
        <ele>68</ele>
        <time>2015-03-11T13:02:24Z</time>
      </trkpt>
      <trkpt lat="44.86805" lon="-0.37903">
        <ele>68</ele>
        <time>2015-03-11T13:02:25Z</time>
      </trkpt>
      <trkpt lat="44.86827" lon="-0.37914">
        <ele>68</ele>
        <time>2015-03-11T13:02:38Z</time>
      </trkpt>
      <trkpt lat="44.86837" lon="-0.37917">
        <ele>67</ele>
        <time>2015-03-11T13:02:47Z</time>
      </trkpt>
      <trkpt lat="44.86848" lon="-0.37923">
        <ele>67</ele>
        <time>2015-03-11T13:02:54Z</time>
      </trkpt>
      <trkpt lat="44.86853" lon="-0.37925">
        <ele>67</ele>
        <time>2015-03-11T13:02:56Z</time>
      </trkpt>
      <trkpt lat="44.86857" lon="-0.37929">
        <ele>67</ele>
        <time>2015-03-11T13:02:59Z</time>
      </trkpt>
      <trkpt lat="44.86868" lon="-0.37934">
        <ele>67</ele>
        <time>2015-03-11T13:03:09Z</time>
      </trkpt>
      <trkpt lat="44.86872" lon="-0.37934">
        <ele>67</ele>
        <time>2015-03-11T13:03:13Z</time>
      </trkpt>
      <trkpt lat="44.86891" lon="-0.37938">
        <ele>66</ele>
        <time>2015-03-11T13:03:27Z</time>
      </trkpt>
      <trkpt lat="44.86903" lon="-0.37944">
        <ele>66</ele>
        <time>2015-03-11T13:03:39Z</time>
      </trkpt>
      <trkpt lat="44.86912" lon="-0.37947">
        <ele>66</ele>
        <time>2015-03-11T13:03:43Z</time>
      </trkpt>
      <trkpt lat="44.86922" lon="-0.37947">
        <ele>66</ele>
        <time>2015-03-11T13:03:49Z</time>
      </trkpt>
      <trkpt lat="44.86933" lon="-0.3795">
        <ele>66</ele>
        <time>2015-03-11T13:04:03Z</time>
      </trkpt>
      <trkpt lat="44.86939" lon="-0.37955">
        <ele>66</ele>
        <time>2015-03-11T13:04:11Z</time>
      </trkpt>
      <trkpt lat="44.86945" lon="-0.37957">
        <ele>66</ele>
        <time>2015-03-11T13:04:16Z</time>
      </trkpt>
      <trkpt lat="44.86961" lon="-0.37965">
        <ele>65</ele>
        <time>2015-03-11T13:04:28Z</time>
      </trkpt>
      <trkpt lat="44.86975" lon="-0.37971">
        <ele>65</ele>
        <time>2015-03-11T13:04:42Z</time>
      </trkpt>
      <trkpt lat="44.86991" lon="-0.37979">
        <ele>65</ele>
        <time>2015-03-11T13:04:55Z</time>
      </trkpt>
      <trkpt lat="44.87009" lon="-0.37984">
        <ele>65</ele>
        <time>2015-03-11T13:05:06Z</time>
      </trkpt>
      <trkpt lat="44.8702" lon="-0.37986">
        <ele>65</ele>
        <time>2015-03-11T13:05:17Z</time>
      </trkpt>
      <trkpt lat="44.8703" lon="-0.37992">
        <ele>64</ele>
        <time>2015-03-11T13:05:29Z</time>
      </trkpt>
      <trkpt lat="44.87038" lon="-0.37995">
        <ele>64</ele>
        <time>2015-03-11T13:05:38Z</time>
      </trkpt>
      <trkpt lat="44.87055" lon="-0.38">
        <ele>63</ele>
        <time>2015-03-11T13:05:51Z</time>
      </trkpt>
      <trkpt lat="44.87067" lon="-0.38003">
        <ele>63</ele>
        <time>2015-03-11T13:06:00Z</time>
      </trkpt>
      <trkpt lat="44.8708" lon="-0.38007">
        <ele>62</ele>
        <time>2015-03-11T13:06:11Z</time>
      </trkpt>
      <trkpt lat="44.87097" lon="-0.38011">
        <ele>61</ele>
        <time>2015-03-11T13:06:23Z</time>
      </trkpt>
      <trkpt lat="44.87106" lon="-0.38016">
        <ele>61</ele>
        <time>2015-03-11T13:06:34Z</time>
      </trkpt>
      <trkpt lat="44.87127" lon="-0.3802">
        <ele>60</ele>
        <time>2015-03-11T13:06:46Z</time>
      </trkpt>
      <trkpt lat="44.87143" lon="-0.38026">
        <ele>60</ele>
        <time>2015-03-11T13:06:59Z</time>
      </trkpt>
      <trkpt lat="44.87155" lon="-0.3803">
        <ele>60</ele>
        <time>2015-03-11T13:07:10Z</time>
      </trkpt>
      <trkpt lat="44.87169" lon="-0.38038">
        <ele>59</ele>
        <time>2015-03-11T13:07:23Z</time>
      </trkpt>
      <trkpt lat="44.87177" lon="-0.38048">
        <ele>59</ele>
        <time>2015-03-11T13:07:37Z</time>
      </trkpt>
      <trkpt lat="44.87179" lon="-0.38054">
        <ele>59</ele>
        <time>2015-03-11T13:07:53Z</time>
      </trkpt>
      <trkpt lat="44.87184" lon="-0.38059">
        <ele>58</ele>
        <time>2015-03-11T13:08:13Z</time>
      </trkpt>
      <trkpt lat="44.87195" lon="-0.38066">
        <ele>58</ele>
        <time>2015-03-11T13:08:22Z</time>
      </trkpt>
      <trkpt lat="44.87205" lon="-0.38071">
        <ele>58</ele>
        <time>2015-03-11T13:08:35Z</time>
      </trkpt>
      <trkpt lat="44.87223" lon="-0.38075">
        <ele>57</ele>
        <time>2015-03-11T13:08:48Z</time>
      </trkpt>
      <trkpt lat="44.87236" lon="-0.38075">
        <ele>56</ele>
        <time>2015-03-11T13:08:58Z</time>
      </trkpt>
      <trkpt lat="44.87247" lon="-0.38075">
        <ele>55</ele>
        <time>2015-03-11T13:09:09Z</time>
      </trkpt>
      <trkpt lat="44.87261" lon="-0.38079">
        <ele>55</ele>
        <time>2015-03-11T13:09:21Z</time>
      </trkpt>
      <trkpt lat="44.8727" lon="-0.3808">
        <ele>54</ele>
        <time>2015-03-11T13:09:30Z</time>
      </trkpt>
      <trkpt lat="44.8729" lon="-0.38083">
        <ele>53</ele>
        <time>2015-03-11T13:09:43Z</time>
      </trkpt>
      <trkpt lat="44.87306" lon="-0.38093">
        <ele>53</ele>
        <time>2015-03-11T13:09:55Z</time>
      </trkpt>
      <trkpt lat="44.87318" lon="-0.38101">
        <ele>52</ele>
        <time>2015-03-11T13:10:05Z</time>
      </trkpt>
      <trkpt lat="44.87331" lon="-0.38115">
        <ele>52</ele>
        <time>2015-03-11T13:10:18Z</time>
      </trkpt>
      <trkpt lat="44.87335" lon="-0.38121">
        <ele>52</ele>
        <time>2015-03-11T13:10:26Z</time>
      </trkpt>
      <trkpt lat="44.87344" lon="-0.38137">
        <ele>52</ele>
        <time>2015-03-11T13:10:38Z</time>
      </trkpt>
      <trkpt lat="44.87353" lon="-0.38151">
        <ele>52</ele>
        <time>2015-03-11T13:10:49Z</time>
      </trkpt>
      <trkpt lat="44.87362" lon="-0.38163">
        <ele>51</ele>
        <time>2015-03-11T13:11:03Z</time>
      </trkpt>
      <trkpt lat="44.87379" lon="-0.38178">
        <ele>51</ele>
        <time>2015-03-11T13:11:15Z</time>
      </trkpt>
      <trkpt lat="44.87388" lon="-0.3819">
        <ele>50</ele>
        <time>2015-03-11T13:11:26Z</time>
      </trkpt>
      <trkpt lat="44.87398" lon="-0.38197">
        <ele>49</ele>
        <time>2015-03-11T13:11:34Z</time>
      </trkpt>
      <trkpt lat="44.87402" lon="-0.38213">
        <ele>50</ele>
        <time>2015-03-11T13:11:46Z</time>
      </trkpt>
      <trkpt lat="44.87401" lon="-0.38224">
        <ele>51</ele>
        <time>2015-03-11T13:11:55Z</time>
      </trkpt>
      <trkpt lat="44.874" lon="-0.38236">
        <ele>51</ele>
        <time>2015-03-11T13:12:09Z</time>
      </trkpt>
      <trkpt lat="44.87398" lon="-0.38275">
        <ele>51</ele>
        <time>2015-03-11T13:12:23Z</time>
      </trkpt>
      <trkpt lat="44.87392" lon="-0.38291">
        <ele>51</ele>
        <time>2015-03-11T13:12:34Z</time>
      </trkpt>
      <trkpt lat="44.87392" lon="-0.38306">
        <ele>51</ele>
        <time>2015-03-11T13:12:45Z</time>
      </trkpt>
      <trkpt lat="44.87389" lon="-0.38324">
        <ele>51</ele>
        <time>2015-03-11T13:12:56Z</time>
      </trkpt>
      <trkpt lat="44.8739" lon="-0.38343">
        <ele>51</ele>
        <time>2015-03-11T13:13:08Z</time>
      </trkpt>
      <trkpt lat="44.87389" lon="-0.3836">
        <ele>52</ele>
        <time>2015-03-11T13:13:18Z</time>
      </trkpt>
      <trkpt lat="44.87385" lon="-0.38374">
        <ele>52</ele>
        <time>2015-03-11T13:13:29Z</time>
      </trkpt>
      <trkpt lat="44.87386" lon="-0.38387">
        <ele>53</ele>
        <time>2015-03-11T13:13:39Z</time>
      </trkpt>
      <trkpt lat="44.87384" lon="-0.38396">
        <ele>53</ele>
        <time>2015-03-11T13:13:45Z</time>
      </trkpt>
      <trkpt lat="44.87383" lon="-0.38416">
        <ele>52</ele>
        <time>2015-03-11T13:13:57Z</time>
      </trkpt>
      <trkpt lat="44.87382" lon="-0.38424">
        <ele>53</ele>
        <time>2015-03-11T13:14:01Z</time>
      </trkpt>
      <trkpt lat="44.87379" lon="-0.38444">
        <ele>53</ele>
        <time>2015-03-11T13:14:14Z</time>
      </trkpt>
      <trkpt lat="44.8737" lon="-0.38458">
        <ele>53</ele>
        <time>2015-03-11T13:14:28Z</time>
      </trkpt>
      <trkpt lat="44.87368" lon="-0.3846">
        <ele>53</ele>
        <time>2015-03-11T13:14:38Z</time>
      </trkpt>
      <trkpt lat="44.87365" lon="-0.3846">
        <ele>53</ele>
        <time>2015-03-11T13:14:53Z</time>
      </trkpt>
      <trkpt lat="44.87363" lon="-0.3846">
        <ele>53</ele>
        <time>2015-03-11T13:15:05Z</time>
      </trkpt>
      <trkpt lat="44.8736" lon="-0.38456">
        <ele>54</ele>
        <time>2015-03-11T13:15:14Z</time>
      </trkpt>
      <trkpt lat="44.87359" lon="-0.38456">
        <ele>54</ele>
        <time>2015-03-11T13:15:20Z</time>
      </trkpt>
      <trkpt lat="44.87348" lon="-0.38446">
        <ele>54</ele>
        <time>2015-03-11T13:15:32Z</time>
      </trkpt>
      <trkpt lat="44.87338" lon="-0.3844">
        <ele>54</ele>
        <time>2015-03-11T13:15:44Z</time>
      </trkpt>
      <trkpt lat="44.87336" lon="-0.38439">
        <ele>54</ele>
        <time>2015-03-11T13:15:46Z</time>
      </trkpt>
      <trkpt lat="44.87322" lon="-0.38427">
        <ele>55</ele>
        <time>2015-03-11T13:15:59Z</time>
      </trkpt>
      <trkpt lat="44.87315" lon="-0.38418">
        <ele>55</ele>
        <time>2015-03-11T13:16:11Z</time>
      </trkpt>
      <trkpt lat="44.87307" lon="-0.38413">
        <ele>56</ele>
        <time>2015-03-11T13:16:18Z</time>
      </trkpt>
      <trkpt lat="44.87293" lon="-0.38403">
        <ele>56</ele>
        <time>2015-03-11T13:16:32Z</time>
      </trkpt>
      <trkpt lat="44.87292" lon="-0.38403">
        <ele>56</ele>
        <time>2015-03-11T13:16:33Z</time>
      </trkpt>
      <trkpt lat="44.87281" lon="-0.3839">
        <ele>56</ele>
        <time>2015-03-11T13:16:46Z</time>
      </trkpt>
      <trkpt lat="44.87273" lon="-0.38385">
        <ele>57</ele>
        <time>2015-03-11T13:16:59Z</time>
      </trkpt>
      <trkpt lat="44.87266" lon="-0.38381">
        <ele>57</ele>
        <time>2015-03-11T13:17:09Z</time>
      </trkpt>
      <trkpt lat="44.87263" lon="-0.38378">
        <ele>57</ele>
        <time>2015-03-11T13:17:11Z</time>
      </trkpt>
      <trkpt lat="44.87249" lon="-0.38367">
        <ele>57</ele>
        <time>2015-03-11T13:17:24Z</time>
      </trkpt>
      <trkpt lat="44.8723" lon="-0.38352">
        <ele>58</ele>
        <time>2015-03-11T13:17:38Z</time>
      </trkpt>
      <trkpt lat="44.8721" lon="-0.38335">
        <ele>58</ele>
        <time>2015-03-11T13:17:54Z</time>
      </trkpt>
      <trkpt lat="44.87196" lon="-0.38323">
        <ele>59</ele>
        <time>2015-03-11T13:18:08Z</time>
      </trkpt>
      <trkpt lat="44.8717" lon="-0.38305">
        <ele>60</ele>
        <time>2015-03-11T13:18:24Z</time>
      </trkpt>
      <trkpt lat="44.87161" lon="-0.38293">
        <ele>60</ele>
        <time>2015-03-11T13:18:35Z</time>
      </trkpt>
      <trkpt lat="44.87149" lon="-0.38284">
        <ele>60</ele>
        <time>2015-03-11T13:18:48Z</time>
      </trkpt>
      <trkpt lat="44.87138" lon="-0.38274">
        <ele>60</ele>
        <time>2015-03-11T13:18:57Z</time>
      </trkpt>
      <trkpt lat="44.87132" lon="-0.38273">
        <ele>60</ele>
        <time>2015-03-11T13:19:02Z</time>
      </trkpt>
      <trkpt lat="44.8712" lon="-0.38265">
        <ele>60</ele>
        <time>2015-03-11T13:19:08Z</time>
      </trkpt>
      <trkpt lat="44.87114" lon="-0.38262">
        <ele>60</ele>
        <time>2015-03-11T13:19:13Z</time>
      </trkpt>
      <trkpt lat="44.87107" lon="-0.38262">
        <ele>60</ele>
        <time>2015-03-11T13:19:19Z</time>
      </trkpt>
      <trkpt lat="44.87094" lon="-0.38256">
        <ele>61</ele>
        <time>2015-03-11T13:19:31Z</time>
      </trkpt>
      <trkpt lat="44.87088" lon="-0.38254">
        <ele>61</ele>
        <time>2015-03-11T13:19:47Z</time>
      </trkpt>
      <trkpt lat="44.87087" lon="-0.38253">
        <ele>61</ele>
        <time>2015-03-11T13:19:48Z</time>
      </trkpt>
      <trkpt lat="44.87082" lon="-0.38251">
        <ele>61</ele>
        <time>2015-03-11T13:19:52Z</time>
      </trkpt>
      <trkpt lat="44.87076" lon="-0.38249">
        <ele>62</ele>
        <time>2015-03-11T13:19:58Z</time>
      </trkpt>
      <trkpt lat="44.87064" lon="-0.38244">
        <ele>62</ele>
        <time>2015-03-11T13:20:08Z</time>
      </trkpt>
      <trkpt lat="44.8706" lon="-0.38242">
        <ele>62</ele>
        <time>2015-03-11T13:20:11Z</time>
      </trkpt>
      <trkpt lat="44.87053" lon="-0.38238">
        <ele>62</ele>
        <time>2015-03-11T13:20:18Z</time>
      </trkpt>
      <trkpt lat="44.87042" lon="-0.38234">
        <ele>62</ele>
        <time>2015-03-11T13:20:30Z</time>
      </trkpt>
      <trkpt lat="44.87034" lon="-0.3823">
        <ele>62</ele>
        <time>2015-03-11T13:20:42Z</time>
      </trkpt>
      <trkpt lat="44.8702" lon="-0.38227">
        <ele>61</ele>
        <time>2015-03-11T13:20:54Z</time>
      </trkpt>
      <trkpt lat="44.87014" lon="-0.38221">
        <ele>61</ele>
        <time>2015-03-11T13:20:58Z</time>
      </trkpt>
      <trkpt lat="44.87" lon="-0.38215">
        <ele>61</ele>
        <time>2015-03-11T13:21:09Z</time>
      </trkpt>
      <trkpt lat="44.86993" lon="-0.38214">
        <ele>61</ele>
        <time>2015-03-11T13:21:14Z</time>
      </trkpt>
      <trkpt lat="44.86979" lon="-0.38206">
        <ele>62</ele>
        <time>2015-03-11T13:21:27Z</time>
      </trkpt>
      <trkpt lat="44.86976" lon="-0.38205">
        <ele>62</ele>
        <time>2015-03-11T13:21:30Z</time>
      </trkpt>
      <trkpt lat="44.86973" lon="-0.38204">
        <ele>62</ele>
        <time>2015-03-11T13:21:33Z</time>
      </trkpt>
      <trkpt lat="44.86964" lon="-0.382">
        <ele>63</ele>
        <time>2015-03-11T13:21:46Z</time>
      </trkpt>
      <trkpt lat="44.86954" lon="-0.38196">
        <ele>63</ele>
        <time>2015-03-11T13:21:58Z</time>
      </trkpt>
      <trkpt lat="44.86934" lon="-0.3819">
        <ele>63</ele>
        <time>2015-03-11T13:22:10Z</time>
      </trkpt>
      <trkpt lat="44.86925" lon="-0.38186">
        <ele>63</ele>
        <time>2015-03-11T13:22:16Z</time>
      </trkpt>
      <trkpt lat="44.86906" lon="-0.38175">
        <ele>62</ele>
        <time>2015-03-11T13:22:29Z</time>
      </trkpt>
      <trkpt lat="44.86903" lon="-0.38175">
        <ele>63</ele>
        <time>2015-03-11T13:22:32Z</time>
      </trkpt>
      <trkpt lat="44.86897" lon="-0.38172">
        <ele>62</ele>
        <time>2015-03-11T13:22:38Z</time>
      </trkpt>
      <trkpt lat="44.86886" lon="-0.38169">
        <ele>62</ele>
        <time>2015-03-11T13:22:49Z</time>
      </trkpt>
      <trkpt lat="44.86874" lon="-0.38166">
        <ele>62</ele>
        <time>2015-03-11T13:22:58Z</time>
      </trkpt>
      <trkpt lat="44.8686" lon="-0.38158">
        <ele>62</ele>
        <time>2015-03-11T13:23:11Z</time>
      </trkpt>
      <trkpt lat="44.86858" lon="-0.38158">
        <ele>62</ele>
        <time>2015-03-11T13:23:13Z</time>
      </trkpt>
      <trkpt lat="44.86849" lon="-0.38154">
        <ele>61</ele>
        <time>2015-03-11T13:23:20Z</time>
      </trkpt>
      <trkpt lat="44.86846" lon="-0.38152">
        <ele>61</ele>
        <time>2015-03-11T13:23:22Z</time>
      </trkpt>
      <trkpt lat="44.86838" lon="-0.38151">
        <ele>61</ele>
        <time>2015-03-11T13:23:29Z</time>
      </trkpt>
      <trkpt lat="44.86834" lon="-0.38148">
        <ele>61</ele>
        <time>2015-03-11T13:23:32Z</time>
      </trkpt>
      <trkpt lat="44.86822" lon="-0.38143">
        <ele>61</ele>
        <time>2015-03-11T13:23:42Z</time>
      </trkpt>
      <trkpt lat="44.86819" lon="-0.38141">
        <ele>61</ele>
        <time>2015-03-11T13:23:45Z</time>
      </trkpt>
      <trkpt lat="44.86809" lon="-0.38139">
        <ele>61</ele>
        <time>2015-03-11T13:23:55Z</time>
      </trkpt>
      <trkpt lat="44.86806" lon="-0.38135">
        <ele>61</ele>
        <time>2015-03-11T13:23:58Z</time>
      </trkpt>
      <trkpt lat="44.868" lon="-0.38134">
        <ele>61</ele>
        <time>2015-03-11T13:24:03Z</time>
      </trkpt>
      <trkpt lat="44.86787" lon="-0.38126">
        <ele>62</ele>
        <time>2015-03-11T13:24:13Z</time>
      </trkpt>
      <trkpt lat="44.86783" lon="-0.38125">
        <ele>62</ele>
        <time>2015-03-11T13:24:16Z</time>
      </trkpt>
      <trkpt lat="44.8678" lon="-0.38122">
        <ele>62</ele>
        <time>2015-03-11T13:24:19Z</time>
      </trkpt>
      <trkpt lat="44.86777" lon="-0.38119">
        <ele>62</ele>
        <time>2015-03-11T13:24:22Z</time>
      </trkpt>
      <trkpt lat="44.86769" lon="-0.38118">
        <ele>63</ele>
        <time>2015-03-11T13:24:27Z</time>
      </trkpt>
      <trkpt lat="44.86764" lon="-0.38114">
        <ele>63</ele>
        <time>2015-03-11T13:24:31Z</time>
      </trkpt>
      <trkpt lat="44.86756" lon="-0.38112">
        <ele>63</ele>
        <time>2015-03-11T13:24:38Z</time>
      </trkpt>
      <trkpt lat="44.86752" lon="-0.38109">
        <ele>63</ele>
        <time>2015-03-11T13:24:43Z</time>
      </trkpt>
      <trkpt lat="44.86737" lon="-0.38103">
        <ele>64</ele>
        <time>2015-03-11T13:24:55Z</time>
      </trkpt>
      <trkpt lat="44.86724" lon="-0.38098">
        <ele>64</ele>
        <time>2015-03-11T13:25:07Z</time>
      </trkpt>
      <trkpt lat="44.86711" lon="-0.38097">
        <ele>64</ele>
        <time>2015-03-11T13:25:20Z</time>
      </trkpt>
      <trkpt lat="44.867" lon="-0.38092">
        <ele>64</ele>
        <time>2015-03-11T13:25:30Z</time>
      </trkpt>
      <trkpt lat="44.86688" lon="-0.38087">
        <ele>64</ele>
        <time>2015-03-11T13:25:39Z</time>
      </trkpt>
      <trkpt lat="44.86679" lon="-0.38084">
        <ele>65</ele>
        <time>2015-03-11T13:25:47Z</time>
      </trkpt>
      <trkpt lat="44.86666" lon="-0.38075">
        <ele>65</ele>
        <time>2015-03-11T13:25:59Z</time>
      </trkpt>
      <trkpt lat="44.86656" lon="-0.38075">
        <ele>63</ele>
        <time>2015-03-11T13:26:10Z</time>
      </trkpt>
      <trkpt lat="44.86645" lon="-0.38079">
        <ele>62</ele>
        <time>2015-03-11T13:26:22Z</time>
      </trkpt>
      <trkpt lat="44.86632" lon="-0.38079">
        <ele>62</ele>
        <time>2015-03-11T13:26:34Z</time>
      </trkpt>
      <trkpt lat="44.86617" lon="-0.38088">
        <ele>61</ele>
        <time>2015-03-11T13:26:47Z</time>
      </trkpt>
      <trkpt lat="44.86607" lon="-0.38092">
        <ele>60</ele>
        <time>2015-03-11T13:26:59Z</time>
      </trkpt>
      <trkpt lat="44.86593" lon="-0.38097">
        <ele>61</ele>
        <time>2015-03-11T13:27:12Z</time>
      </trkpt>
      <trkpt lat="44.86585" lon="-0.38103">
        <ele>61</ele>
        <time>2015-03-11T13:27:22Z</time>
      </trkpt>
      <trkpt lat="44.86574" lon="-0.38112">
        <ele>61</ele>
        <time>2015-03-11T13:27:33Z</time>
      </trkpt>
      <trkpt lat="44.86568" lon="-0.38115">
        <ele>61</ele>
        <time>2015-03-11T13:27:36Z</time>
      </trkpt>
      <trkpt lat="44.86557" lon="-0.38119">
        <ele>61</ele>
        <time>2015-03-11T13:27:46Z</time>
      </trkpt>
      <trkpt lat="44.86541" lon="-0.38132">
        <ele>62</ele>
        <time>2015-03-11T13:28:00Z</time>
      </trkpt>
      <trkpt lat="44.8653" lon="-0.38134">
        <ele>62</ele>
        <time>2015-03-11T13:28:11Z</time>
      </trkpt>
      <trkpt lat="44.86529" lon="-0.38136">
        <ele>62</ele>
        <time>2015-03-11T13:28:16Z</time>
      </trkpt>
      <trkpt lat="44.86521" lon="-0.3814">
        <ele>62</ele>
        <time>2015-03-11T13:28:23Z</time>
      </trkpt>
      <trkpt lat="44.86512" lon="-0.38144">
        <ele>63</ele>
        <time>2015-03-11T13:28:31Z</time>
      </trkpt>
      <trkpt lat="44.86508" lon="-0.38147">
        <ele>63</ele>
        <time>2015-03-11T13:28:39Z</time>
      </trkpt>
      <trkpt lat="44.86503" lon="-0.3815">
        <ele>64</ele>
        <time>2015-03-11T13:28:45Z</time>
      </trkpt>
      <trkpt lat="44.86492" lon="-0.38155">
        <ele>64</ele>
        <time>2015-03-11T13:28:57Z</time>
      </trkpt>
      <trkpt lat="44.86479" lon="-0.38162">
        <ele>65</ele>
        <time>2015-03-11T13:29:09Z</time>
      </trkpt>
      <trkpt lat="44.86476" lon="-0.38163">
        <ele>65</ele>
        <time>2015-03-11T13:29:13Z</time>
      </trkpt>
      <trkpt lat="44.86468" lon="-0.38172">
        <ele>65</ele>
        <time>2015-03-11T13:29:24Z</time>
      </trkpt>
      <trkpt lat="44.86458" lon="-0.3818">
        <ele>65</ele>
        <time>2015-03-11T13:29:36Z</time>
      </trkpt>
      <trkpt lat="44.86453" lon="-0.38182">
        <ele>66</ele>
        <time>2015-03-11T13:29:40Z</time>
      </trkpt>
      <trkpt lat="44.86449" lon="-0.38187">
        <ele>66</ele>
        <time>2015-03-11T13:29:44Z</time>
      </trkpt>
      <trkpt lat="44.86444" lon="-0.3819">
        <ele>66</ele>
        <time>2015-03-11T13:29:47Z</time>
      </trkpt>
      <trkpt lat="44.86441" lon="-0.38193">
        <ele>66</ele>
        <time>2015-03-11T13:29:50Z</time>
      </trkpt>
      <trkpt lat="44.86433" lon="-0.38196">
        <ele>66</ele>
        <time>2015-03-11T13:29:58Z</time>
      </trkpt>
      <trkpt lat="44.86424" lon="-0.38201">
        <ele>67</ele>
        <time>2015-03-11T13:30:09Z</time>
      </trkpt>
      <trkpt lat="44.86421" lon="-0.38202">
        <ele>67</ele>
        <time>2015-03-11T13:30:12Z</time>
      </trkpt>
      <trkpt lat="44.86415" lon="-0.38205">
        <ele>68</ele>
        <time>2015-03-11T13:30:17Z</time>
      </trkpt>
      <trkpt lat="44.86404" lon="-0.38215">
        <ele>69</ele>
        <time>2015-03-11T13:30:31Z</time>
      </trkpt>
      <trkpt lat="44.86398" lon="-0.38219">
        <ele>69</ele>
        <time>2015-03-11T13:30:36Z</time>
      </trkpt>
      <trkpt lat="44.86394" lon="-0.3822">
        <ele>69</ele>
        <time>2015-03-11T13:30:39Z</time>
      </trkpt>
      <trkpt lat="44.86388" lon="-0.38227">
        <ele>69</ele>
        <time>2015-03-11T13:30:45Z</time>
      </trkpt>
      <trkpt lat="44.8638" lon="-0.38231">
        <ele>70</ele>
        <time>2015-03-11T13:30:51Z</time>
      </trkpt>
      <trkpt lat="44.86364" lon="-0.38241">
        <ele>70</ele>
        <time>2015-03-11T13:31:05Z</time>
      </trkpt>
      <trkpt lat="44.86358" lon="-0.38245">
        <ele>70</ele>
        <time>2015-03-11T13:31:11Z</time>
      </trkpt>
      <trkpt lat="44.86354" lon="-0.38248">
        <ele>70</ele>
        <time>2015-03-11T13:31:13Z</time>
      </trkpt>
      <trkpt lat="44.86345" lon="-0.38254">
        <ele>71</ele>
        <time>2015-03-11T13:31:26Z</time>
      </trkpt>
      <trkpt lat="44.86333" lon="-0.38259">
        <ele>72</ele>
        <time>2015-03-11T13:31:38Z</time>
      </trkpt>
      <trkpt lat="44.86325" lon="-0.38263">
        <ele>72</ele>
        <time>2015-03-11T13:31:50Z</time>
      </trkpt>
      <trkpt lat="44.86325" lon="-0.38262">
        <ele>72</ele>
        <time>2015-03-11T13:32:11Z</time>
      </trkpt>
      <trkpt lat="44.86324" lon="-0.38262">
        <ele>72</ele>
        <time>2015-03-11T13:32:34Z</time>
      </trkpt>
      <trkpt lat="44.86323" lon="-0.38264">
        <ele>72</ele>
        <time>2015-03-11T13:32:56Z</time>
      </trkpt>
      <trkpt lat="44.86319" lon="-0.38269">
        <ele>73</ele>
        <time>2015-03-11T13:33:05Z</time>
      </trkpt>
      <trkpt lat="44.86316" lon="-0.38272">
        <ele>72</ele>
        <time>2015-03-11T13:33:07Z</time>
      </trkpt>
      <trkpt lat="44.86311" lon="-0.38281">
        <ele>73</ele>
        <time>2015-03-11T13:33:14Z</time>
      </trkpt>
      <trkpt lat="44.86301" lon="-0.38288">
        <ele>72</ele>
        <time>2015-03-11T13:33:27Z</time>
      </trkpt>
      <trkpt lat="44.86296" lon="-0.38291">
        <ele>72</ele>
        <time>2015-03-11T13:33:32Z</time>
      </trkpt>
      <trkpt lat="44.86292" lon="-0.38298">
        <ele>72</ele>
        <time>2015-03-11T13:33:45Z</time>
      </trkpt>
      <trkpt lat="44.86282" lon="-0.38315">
        <ele>71</ele>
        <time>2015-03-11T13:33:58Z</time>
      </trkpt>
      <trkpt lat="44.86274" lon="-0.3833">
        <ele>71</ele>
        <time>2015-03-11T13:34:11Z</time>
      </trkpt>
      <trkpt lat="44.86268" lon="-0.38344">
        <ele>70</ele>
        <time>2015-03-11T13:34:21Z</time>
      </trkpt>
      <trkpt lat="44.86262" lon="-0.38359">
        <ele>69</ele>
        <time>2015-03-11T13:34:32Z</time>
      </trkpt>
      <trkpt lat="44.86257" lon="-0.38367">
        <ele>68</ele>
        <time>2015-03-11T13:34:43Z</time>
      </trkpt>
      <trkpt lat="44.86257" lon="-0.38368">
        <ele>68</ele>
        <time>2015-03-11T13:34:45Z</time>
      </trkpt>
      <trkpt lat="44.86254" lon="-0.38372">
        <ele>68</ele>
        <time>2015-03-11T13:34:47Z</time>
      </trkpt>
      <trkpt lat="44.86251" lon="-0.38382">
        <ele>68</ele>
        <time>2015-03-11T13:34:51Z</time>
      </trkpt>
      <trkpt lat="44.86245" lon="-0.38406">
        <ele>66</ele>
        <time>2015-03-11T13:35:04Z</time>
      </trkpt>
      <trkpt lat="44.86241" lon="-0.38421">
        <ele>66</ele>
        <time>2015-03-11T13:35:14Z</time>
      </trkpt>
      <trkpt lat="44.86234" lon="-0.38441">
        <ele>65</ele>
        <time>2015-03-11T13:35:25Z</time>
      </trkpt>
      <trkpt lat="44.86225" lon="-0.38456">
        <ele>64</ele>
        <time>2015-03-11T13:35:37Z</time>
      </trkpt>
      <trkpt lat="44.8622" lon="-0.38464">
        <ele>64</ele>
        <time>2015-03-11T13:35:44Z</time>
      </trkpt>
      <trkpt lat="44.86214" lon="-0.38478">
        <ele>64</ele>
        <time>2015-03-11T13:35:54Z</time>
      </trkpt>
      <trkpt lat="44.86212" lon="-0.38481">
        <ele>63</ele>
        <time>2015-03-11T13:35:58Z</time>
      </trkpt>
      <trkpt lat="44.86209" lon="-0.38484">
        <ele>63</ele>
        <time>2015-03-11T13:36:01Z</time>
      </trkpt>
      <trkpt lat="44.86198" lon="-0.38506">
        <ele>63</ele>
        <time>2015-03-11T13:36:14Z</time>
      </trkpt>
      <trkpt lat="44.86192" lon="-0.38523">
        <ele>62</ele>
        <time>2015-03-11T13:36:23Z</time>
      </trkpt>
      <trkpt lat="44.86187" lon="-0.38534">
        <ele>62</ele>
        <time>2015-03-11T13:36:35Z</time>
      </trkpt>
      <trkpt lat="44.86186" lon="-0.38537">
        <ele>62</ele>
        <time>2015-03-11T13:36:37Z</time>
      </trkpt>
      <trkpt lat="44.8618" lon="-0.38564">
        <ele>61</ele>
        <time>2015-03-11T13:36:50Z</time>
      </trkpt>
      <trkpt lat="44.86178" lon="-0.38571">
        <ele>61</ele>
        <time>2015-03-11T13:37:00Z</time>
      </trkpt>
      <trkpt lat="44.86177" lon="-0.38589">
        <ele>61</ele>
        <time>2015-03-11T13:37:11Z</time>
      </trkpt>
      <trkpt lat="44.86171" lon="-0.38605">
        <ele>61</ele>
        <time>2015-03-11T13:37:19Z</time>
      </trkpt>
      <trkpt lat="44.86171" lon="-0.38609">
        <ele>61</ele>
        <time>2015-03-11T13:37:21Z</time>
      </trkpt>
      <trkpt lat="44.86171" lon="-0.38626">
        <ele>61</ele>
        <time>2015-03-11T13:37:33Z</time>
      </trkpt>
      <trkpt lat="44.86168" lon="-0.38639">
        <ele>61</ele>
        <time>2015-03-11T13:37:44Z</time>
      </trkpt>
      <trkpt lat="44.86162" lon="-0.38653">
        <ele>62</ele>
        <time>2015-03-11T13:37:54Z</time>
      </trkpt>
      <trkpt lat="44.86163" lon="-0.38656">
        <ele>62</ele>
        <time>2015-03-11T13:38:14Z</time>
      </trkpt>
      <trkpt lat="44.86164" lon="-0.38656">
        <ele>62</ele>
        <time>2015-03-11T13:38:23Z</time>
      </trkpt>
      <trkpt lat="44.86165" lon="-0.38652">
        <ele>62</ele>
        <time>2015-03-11T13:38:27Z</time>
      </trkpt>
      <trkpt lat="44.86166" lon="-0.38649">
        <ele>61</ele>
        <time>2015-03-11T13:38:30Z</time>
      </trkpt>
      <trkpt lat="44.86167" lon="-0.38645">
        <ele>62</ele>
        <time>2015-03-11T13:38:35Z</time>
      </trkpt>
      <trkpt lat="44.86166" lon="-0.38638">
        <ele>61</ele>
        <time>2015-03-11T13:38:40Z</time>
      </trkpt>
      <trkpt lat="44.86166" lon="-0.38626">
        <ele>61</ele>
        <time>2015-03-11T13:38:47Z</time>
      </trkpt>
      <trkpt lat="44.86166" lon="-0.3862">
        <ele>61</ele>
        <time>2015-03-11T13:38:52Z</time>
      </trkpt>
      <trkpt lat="44.86163" lon="-0.38613">
        <ele>61</ele>
        <time>2015-03-11T13:38:56Z</time>
      </trkpt>
      <trkpt lat="44.86164" lon="-0.38603">
        <ele>60</ele>
        <time>2015-03-11T13:39:03Z</time>
      </trkpt>
      <trkpt lat="44.86166" lon="-0.38593">
        <ele>60</ele>
        <time>2015-03-11T13:39:09Z</time>
      </trkpt>
      <trkpt lat="44.86169" lon="-0.38582">
        <ele>60</ele>
        <time>2015-03-11T13:39:15Z</time>
      </trkpt>
      <trkpt lat="44.8617" lon="-0.38569">
        <ele>59</ele>
        <time>2015-03-11T13:39:24Z</time>
      </trkpt>
      <trkpt lat="44.86174" lon="-0.38552">
        <ele>60</ele>
        <time>2015-03-11T13:39:33Z</time>
      </trkpt>
      <trkpt lat="44.86177" lon="-0.38543">
        <ele>59</ele>
        <time>2015-03-11T13:39:38Z</time>
      </trkpt>
      <trkpt lat="44.86178" lon="-0.38533">
        <ele>60</ele>
        <time>2015-03-11T13:39:48Z</time>
      </trkpt>
      <trkpt lat="44.86173" lon="-0.38515">
        <ele>60</ele>
        <time>2015-03-11T13:40:00Z</time>
      </trkpt>
      <trkpt lat="44.86164" lon="-0.385">
        <ele>60</ele>
        <time>2015-03-11T13:40:10Z</time>
      </trkpt>
      <trkpt lat="44.86161" lon="-0.38499">
        <ele>60</ele>
        <time>2015-03-11T13:40:15Z</time>
      </trkpt>
      <trkpt lat="44.86157" lon="-0.38493">
        <ele>60</ele>
        <time>2015-03-11T13:40:20Z</time>
      </trkpt>
      <trkpt lat="44.86154" lon="-0.38488">
        <ele>60</ele>
        <time>2015-03-11T13:40:23Z</time>
      </trkpt>
      <trkpt lat="44.86142" lon="-0.38478">
        <ele>61</ele>
        <time>2015-03-11T13:40:35Z</time>
      </trkpt>
      <trkpt lat="44.86134" lon="-0.38475">
        <ele>61</ele>
        <time>2015-03-11T13:40:40Z</time>
      </trkpt>
      <trkpt lat="44.86128" lon="-0.38467">
        <ele>61</ele>
        <time>2015-03-11T13:40:47Z</time>
      </trkpt>
      <trkpt lat="44.86125" lon="-0.38465">
        <ele>61</ele>
        <time>2015-03-11T13:40:50Z</time>
      </trkpt>
      <trkpt lat="44.8612" lon="-0.3846">
        <ele>61</ele>
        <time>2015-03-11T13:40:54Z</time>
      </trkpt>
      <trkpt lat="44.86112" lon="-0.38453">
        <ele>62</ele>
        <time>2015-03-11T13:41:03Z</time>
      </trkpt>
      <trkpt lat="44.86104" lon="-0.38434">
        <ele>62</ele>
        <time>2015-03-11T13:41:16Z</time>
      </trkpt>
      <trkpt lat="44.86101" lon="-0.38428">
        <ele>63</ele>
        <time>2015-03-11T13:41:20Z</time>
      </trkpt>
      <trkpt lat="44.86096" lon="-0.38427">
        <ele>63</ele>
        <time>2015-03-11T13:41:24Z</time>
      </trkpt>
      <trkpt lat="44.86088" lon="-0.38419">
        <ele>63</ele>
        <time>2015-03-11T13:41:31Z</time>
      </trkpt>
      <trkpt lat="44.86085" lon="-0.38419">
        <ele>63</ele>
        <time>2015-03-11T13:41:34Z</time>
      </trkpt>
      <trkpt lat="44.86076" lon="-0.38421">
        <ele>63</ele>
        <time>2015-03-11T13:41:42Z</time>
      </trkpt>
      <trkpt lat="44.86063" lon="-0.38422">
        <ele>64</ele>
        <time>2015-03-11T13:41:55Z</time>
      </trkpt>
      <trkpt lat="44.86057" lon="-0.38423">
        <ele>64</ele>
        <time>2015-03-11T13:42:01Z</time>
      </trkpt>
      <trkpt lat="44.86041" lon="-0.38426">
        <ele>64</ele>
        <time>2015-03-11T13:42:14Z</time>
      </trkpt>
      <trkpt lat="44.8603" lon="-0.38424">
        <ele>64</ele>
        <time>2015-03-11T13:42:22Z</time>
      </trkpt>
      <trkpt lat="44.86019" lon="-0.38426">
        <ele>65</ele>
        <time>2015-03-11T13:42:31Z</time>
      </trkpt>
      <trkpt lat="44.86006" lon="-0.38429">
        <ele>65</ele>
        <time>2015-03-11T13:42:43Z</time>
      </trkpt>
      <trkpt lat="44.85995" lon="-0.38434">
        <ele>66</ele>
        <time>2015-03-11T13:42:52Z</time>
      </trkpt>
      <trkpt lat="44.85994" lon="-0.38434">
        <ele>66</ele>
        <time>2015-03-11T13:42:53Z</time>
      </trkpt>
      <trkpt lat="44.85978" lon="-0.38433">
        <ele>66</ele>
        <time>2015-03-11T13:43:05Z</time>
      </trkpt>
      <trkpt lat="44.85972" lon="-0.38436">
        <ele>66</ele>
        <time>2015-03-11T13:43:10Z</time>
      </trkpt>
      <trkpt lat="44.85958" lon="-0.38436">
        <ele>66</ele>
        <time>2015-03-11T13:43:23Z</time>
      </trkpt>
      <trkpt lat="44.85954" lon="-0.38434">
        <ele>67</ele>
        <time>2015-03-11T13:43:28Z</time>
      </trkpt>
      <trkpt lat="44.85943" lon="-0.38437">
        <ele>67</ele>
        <time>2015-03-11T13:43:40Z</time>
      </trkpt>
      <trkpt lat="44.85941" lon="-0.38438">
        <ele>67</ele>
        <time>2015-03-11T13:43:44Z</time>
      </trkpt>
      <trkpt lat="44.85939" lon="-0.3844">
        <ele>67</ele>
        <time>2015-03-11T13:43:46Z</time>
      </trkpt>
      <trkpt lat="44.85936" lon="-0.38447">
        <ele>67</ele>
        <time>2015-03-11T13:43:52Z</time>
      </trkpt>
      <trkpt lat="44.85937" lon="-0.38451">
        <ele>67</ele>
        <time>2015-03-11T13:43:56Z</time>
      </trkpt>
      <trkpt lat="44.85934" lon="-0.38469">
        <ele>67</ele>
        <time>2015-03-11T13:44:10Z</time>
      </trkpt>
      <trkpt lat="44.85935" lon="-0.38489">
        <ele>66</ele>
        <time>2015-03-11T13:44:20Z</time>
      </trkpt>
      <trkpt lat="44.85934" lon="-0.38495">
        <ele>66</ele>
        <time>2015-03-11T13:44:23Z</time>
      </trkpt>
      <trkpt lat="44.85934" lon="-0.38503">
        <ele>67</ele>
        <time>2015-03-11T13:44:27Z</time>
      </trkpt>
      <trkpt lat="44.85935" lon="-0.38521">
        <ele>67</ele>
        <time>2015-03-11T13:44:37Z</time>
      </trkpt>
      <trkpt lat="44.85937" lon="-0.38529">
        <ele>67</ele>
        <time>2015-03-11T13:44:42Z</time>
      </trkpt>
      <trkpt lat="44.85937" lon="-0.38539">
        <ele>67</ele>
        <time>2015-03-11T13:44:49Z</time>
      </trkpt>
      <trkpt lat="44.85937" lon="-0.38554">
        <ele>67</ele>
        <time>2015-03-11T13:44:58Z</time>
      </trkpt>
      <trkpt lat="44.8594" lon="-0.38562">
        <ele>66</ele>
        <time>2015-03-11T13:45:03Z</time>
      </trkpt>
      <trkpt lat="44.8594" lon="-0.38569">
        <ele>67</ele>
        <time>2015-03-11T13:45:07Z</time>
      </trkpt>
      <trkpt lat="44.85942" lon="-0.38576">
        <ele>66</ele>
        <time>2015-03-11T13:45:11Z</time>
      </trkpt>
      <trkpt lat="44.85944" lon="-0.38583">
        <ele>66</ele>
        <time>2015-03-11T13:45:15Z</time>
      </trkpt>
      <trkpt lat="44.85943" lon="-0.38591">
        <ele>66</ele>
        <time>2015-03-11T13:45:19Z</time>
      </trkpt>
      <trkpt lat="44.85943" lon="-0.38596">
        <ele>66</ele>
        <time>2015-03-11T13:45:21Z</time>
      </trkpt>
      <trkpt lat="44.85945" lon="-0.38598">
        <ele>66</ele>
        <time>2015-03-11T13:45:23Z</time>
      </trkpt>
      <trkpt lat="44.85947" lon="-0.38603">
        <ele>66</ele>
        <time>2015-03-11T13:45:27Z</time>
      </trkpt>
      <trkpt lat="44.85953" lon="-0.38618">
        <ele>66</ele>
        <time>2015-03-11T13:45:40Z</time>
      </trkpt>
      <trkpt lat="44.85953" lon="-0.3862">
        <ele>66</ele>
        <time>2015-03-11T13:46:00Z</time>
      </trkpt>
      <trkpt lat="44.85952" lon="-0.38623">
        <ele>66</ele>
        <time>2015-03-11T13:46:02Z</time>
      </trkpt>
      <trkpt lat="44.8594" lon="-0.38634">
        <ele>66</ele>
        <time>2015-03-11T13:46:14Z</time>
      </trkpt>
      <trkpt lat="44.85939" lon="-0.38635">
        <ele>66</ele>
        <time>2015-03-11T13:46:15Z</time>
      </trkpt>
      <trkpt lat="44.85936" lon="-0.38636">
        <ele>66</ele>
        <time>2015-03-11T13:46:18Z</time>
      </trkpt>
      <trkpt lat="44.85923" lon="-0.3864">
        <ele>66</ele>
        <time>2015-03-11T13:46:27Z</time>
      </trkpt>
      <trkpt lat="44.85919" lon="-0.38644">
        <ele>66</ele>
        <time>2015-03-11T13:46:31Z</time>
      </trkpt>
      <trkpt lat="44.85912" lon="-0.38646">
        <ele>66</ele>
        <time>2015-03-11T13:46:36Z</time>
      </trkpt>
      <trkpt lat="44.85894" lon="-0.38652">
        <ele>64</ele>
        <time>2015-03-11T13:46:50Z</time>
      </trkpt>
      <trkpt lat="44.85891" lon="-0.38653">
        <ele>64</ele>
        <time>2015-03-11T13:46:52Z</time>
      </trkpt>
      <trkpt lat="44.85884" lon="-0.38654">
        <ele>64</ele>
        <time>2015-03-11T13:46:57Z</time>
      </trkpt>
      <trkpt lat="44.85866" lon="-0.38662">
        <ele>63</ele>
        <time>2015-03-11T13:47:12Z</time>
      </trkpt>
      <trkpt lat="44.8585" lon="-0.38661">
        <ele>62</ele>
        <time>2015-03-11T13:47:24Z</time>
      </trkpt>
      <trkpt lat="44.85835" lon="-0.38669">
        <ele>62</ele>
        <time>2015-03-11T13:47:36Z</time>
      </trkpt>
      <trkpt lat="44.85825" lon="-0.38672">
        <ele>61</ele>
        <time>2015-03-11T13:47:43Z</time>
      </trkpt>
      <trkpt lat="44.85813" lon="-0.38679">
        <ele>60</ele>
        <time>2015-03-11T13:47:53Z</time>
      </trkpt>
      <trkpt lat="44.85799" lon="-0.38683">
        <ele>60</ele>
        <time>2015-03-11T13:48:05Z</time>
      </trkpt>
      <trkpt lat="44.85792" lon="-0.38684">
        <ele>59</ele>
        <time>2015-03-11T13:48:11Z</time>
      </trkpt>
      <trkpt lat="44.8578" lon="-0.38685">
        <ele>59</ele>
        <time>2015-03-11T13:48:20Z</time>
      </trkpt>
      <trkpt lat="44.85776" lon="-0.38687">
        <ele>58</ele>
        <time>2015-03-11T13:48:24Z</time>
      </trkpt>
      <trkpt lat="44.85764" lon="-0.3869">
        <ele>58</ele>
        <time>2015-03-11T13:48:35Z</time>
      </trkpt>
      <trkpt lat="44.85749" lon="-0.38695">
        <ele>57</ele>
        <time>2015-03-11T13:48:46Z</time>
      </trkpt>
      <trkpt lat="44.85744" lon="-0.38698">
        <ele>57</ele>
        <time>2015-03-11T13:48:50Z</time>
      </trkpt>
      <trkpt lat="44.8573" lon="-0.387">
        <ele>56</ele>
        <time>2015-03-11T13:49:06Z</time>
      </trkpt>
      <trkpt lat="44.85731" lon="-0.38701">
        <ele>56</ele>
        <time>2015-03-11T13:49:26Z</time>
      </trkpt>
      <trkpt lat="44.85731" lon="-0.38702">
        <ele>56</ele>
        <time>2015-03-11T13:49:48Z</time>
      </trkpt>
      <trkpt lat="44.85731" lon="-0.38705">
        <ele>57</ele>
        <time>2015-03-11T13:50:09Z</time>
      </trkpt>
      <trkpt lat="44.85731" lon="-0.38705">
        <ele>57</ele>
        <time>2015-03-11T13:50:29Z</time>
      </trkpt>
      <trkpt lat="44.85731" lon="-0.38706">
        <ele>57</ele>
        <time>2015-03-11T13:50:52Z</time>
      </trkpt>
      <trkpt lat="44.85731" lon="-0.38703">
        <ele>56</ele>
        <time>2015-03-11T13:51:01Z</time>
      </trkpt>
      <trkpt lat="44.85729" lon="-0.38689">
        <ele>56</ele>
        <time>2015-03-11T13:51:12Z</time>
      </trkpt>
      <trkpt lat="44.85728" lon="-0.3867">
        <ele>57</ele>
        <time>2015-03-11T13:51:23Z</time>
      </trkpt>
      <trkpt lat="44.85725" lon="-0.3864">
        <ele>57</ele>
        <time>2015-03-11T13:51:39Z</time>
      </trkpt>
      <trkpt lat="44.85723" lon="-0.38637">
        <ele>57</ele>
        <time>2015-03-11T13:51:41Z</time>
      </trkpt>
      <trkpt lat="44.85724" lon="-0.38627">
        <ele>57</ele>
        <time>2015-03-11T13:51:46Z</time>
      </trkpt>
      <trkpt lat="44.85721" lon="-0.38618">
        <ele>57</ele>
        <time>2015-03-11T13:51:51Z</time>
      </trkpt>
      <trkpt lat="44.85718" lon="-0.3861">
        <ele>57</ele>
        <time>2015-03-11T13:51:55Z</time>
      </trkpt>
      <trkpt lat="44.85718" lon="-0.38603">
        <ele>57</ele>
        <time>2015-03-11T13:51:58Z</time>
      </trkpt>
      <trkpt lat="44.85717" lon="-0.38595">
        <ele>57</ele>
        <time>2015-03-11T13:52:02Z</time>
      </trkpt>
      <trkpt lat="44.85717" lon="-0.38592">
        <ele>57</ele>
        <time>2015-03-11T13:52:04Z</time>
      </trkpt>
      <trkpt lat="44.85716" lon="-0.38579">
        <ele>57</ele>
        <time>2015-03-11T13:52:11Z</time>
      </trkpt>
      <trkpt lat="44.85715" lon="-0.38566">
        <ele>57</ele>
        <time>2015-03-11T13:52:21Z</time>
      </trkpt>
      <trkpt lat="44.85715" lon="-0.38556">
        <ele>57</ele>
        <time>2015-03-11T13:52:27Z</time>
      </trkpt>
      <trkpt lat="44.85714" lon="-0.38549">
        <ele>58</ele>
        <time>2015-03-11T13:52:31Z</time>
      </trkpt>
      <trkpt lat="44.85714" lon="-0.3853">
        <ele>58</ele>
        <time>2015-03-11T13:52:43Z</time>
      </trkpt>
      <trkpt lat="44.85718" lon="-0.38509">
        <ele>59</ele>
        <time>2015-03-11T13:52:57Z</time>
      </trkpt>
      <trkpt lat="44.85721" lon="-0.38504">
        <ele>59</ele>
        <time>2015-03-11T13:53:01Z</time>
      </trkpt>
      <trkpt lat="44.85726" lon="-0.38496">
        <ele>60</ele>
        <time>2015-03-11T13:53:09Z</time>
      </trkpt>
      <trkpt lat="44.85733" lon="-0.38482">
        <ele>60</ele>
        <time>2015-03-11T13:53:18Z</time>
      </trkpt>
      <trkpt lat="44.85739" lon="-0.38466">
        <ele>61</ele>
        <time>2015-03-11T13:53:30Z</time>
      </trkpt>
      <trkpt lat="44.8574" lon="-0.38464">
        <ele>61</ele>
        <time>2015-03-11T13:53:31Z</time>
      </trkpt>
      <trkpt lat="44.85747" lon="-0.38451">
        <ele>62</ele>
        <time>2015-03-11T13:53:40Z</time>
      </trkpt>
      <trkpt lat="44.85753" lon="-0.3843">
        <ele>63</ele>
        <time>2015-03-11T13:53:54Z</time>
      </trkpt>
      <trkpt lat="44.85756" lon="-0.3841">
        <ele>64</ele>
        <time>2015-03-11T13:54:03Z</time>
      </trkpt>
      <trkpt lat="44.85757" lon="-0.38403">
        <ele>64</ele>
        <time>2015-03-11T13:54:07Z</time>
      </trkpt>
      <trkpt lat="44.85755" lon="-0.38388">
        <ele>65</ele>
        <time>2015-03-11T13:54:15Z</time>
      </trkpt>
      <trkpt lat="44.8575" lon="-0.38383">
        <ele>66</ele>
        <time>2015-03-11T13:54:19Z</time>
      </trkpt>
      <trkpt lat="44.85753" lon="-0.38374">
        <ele>66</ele>
        <time>2015-03-11T13:54:25Z</time>
      </trkpt>
      <trkpt lat="44.85755" lon="-0.38355">
        <ele>66</ele>
        <time>2015-03-11T13:54:35Z</time>
      </trkpt>
      <trkpt lat="44.85756" lon="-0.38335">
        <ele>66</ele>
        <time>2015-03-11T13:54:47Z</time>
      </trkpt>
      <trkpt lat="44.85757" lon="-0.38326">
        <ele>66</ele>
        <time>2015-03-11T13:54:52Z</time>
      </trkpt>
      <trkpt lat="44.85758" lon="-0.3832">
        <ele>66</ele>
        <time>2015-03-11T13:54:56Z</time>
      </trkpt>
      <trkpt lat="44.85757" lon="-0.38315">
        <ele>66</ele>
        <time>2015-03-11T13:54:59Z</time>
      </trkpt>
      <trkpt lat="44.85757" lon="-0.38284">
        <ele>66</ele>
        <time>2015-03-11T13:55:13Z</time>
      </trkpt>
      <trkpt lat="44.85757" lon="-0.3828">
        <ele>66</ele>
        <time>2015-03-11T13:55:15Z</time>
      </trkpt>
      <trkpt lat="44.85758" lon="-0.38274">
        <ele>65</ele>
        <time>2015-03-11T13:55:18Z</time>
      </trkpt>
      <trkpt lat="44.85759" lon="-0.38268">
        <ele>65</ele>
        <time>2015-03-11T13:55:23Z</time>
      </trkpt>
      <trkpt lat="44.85761" lon="-0.38264">
        <ele>65</ele>
        <time>2015-03-11T13:55:26Z</time>
      </trkpt>
      <trkpt lat="44.85762" lon="-0.38261">
        <ele>65</ele>
        <time>2015-03-11T13:55:41Z</time>
      </trkpt>
      <trkpt lat="44.85762" lon="-0.3826">
        <ele>65</ele>
        <time>2015-03-11T13:55:53Z</time>
      </trkpt>
      <trkpt lat="44.85761" lon="-0.38246">
        <ele>64</ele>
        <time>2015-03-11T13:56:05Z</time>
      </trkpt>
      <trkpt lat="44.85769" lon="-0.38228">
        <ele>64</ele>
        <time>2015-03-11T13:56:19Z</time>
      </trkpt>
      <trkpt lat="44.85768" lon="-0.38215">
        <ele>63</ele>
        <time>2015-03-11T13:56:26Z</time>
      </trkpt>
      <trkpt lat="44.85768" lon="-0.38202">
        <ele>63</ele>
        <time>2015-03-11T13:56:34Z</time>
      </trkpt>
      <trkpt lat="44.85768" lon="-0.38191">
        <ele>62</ele>
        <time>2015-03-11T13:56:39Z</time>
      </trkpt>
      <trkpt lat="44.8577" lon="-0.38171">
        <ele>62</ele>
        <time>2015-03-11T13:56:50Z</time>
      </trkpt>
      <trkpt lat="44.8577" lon="-0.38167">
        <ele>62</ele>
        <time>2015-03-11T13:56:53Z</time>
      </trkpt>
      <trkpt lat="44.85769" lon="-0.38164">
        <ele>62</ele>
        <time>2015-03-11T13:56:55Z</time>
      </trkpt>
      <trkpt lat="44.8577" lon="-0.38152">
        <ele>61</ele>
        <time>2015-03-11T13:57:02Z</time>
      </trkpt>
      <trkpt lat="44.85767" lon="-0.38136">
        <ele>61</ele>
        <time>2015-03-11T13:57:12Z</time>
      </trkpt>
      <trkpt lat="44.8577" lon="-0.38116">
        <ele>61</ele>
        <time>2015-03-11T13:57:25Z</time>
      </trkpt>
      <trkpt lat="44.85766" lon="-0.38094">
        <ele>61</ele>
        <time>2015-03-11T13:57:37Z</time>
      </trkpt>
      <trkpt lat="44.85765" lon="-0.38087">
        <ele>60</ele>
        <time>2015-03-11T13:57:41Z</time>
      </trkpt>
      <trkpt lat="44.85761" lon="-0.38078">
        <ele>60</ele>
        <time>2015-03-11T13:57:47Z</time>
      </trkpt>
      <trkpt lat="44.85751" lon="-0.38057">
        <ele>60</ele>
        <time>2015-03-11T13:58:00Z</time>
      </trkpt>
      <trkpt lat="44.85737" lon="-0.38041">
        <ele>59</ele>
        <time>2015-03-11T13:58:15Z</time>
      </trkpt>
      <trkpt lat="44.85728" lon="-0.38031">
        <ele>59</ele>
        <time>2015-03-11T13:58:24Z</time>
      </trkpt>
      <trkpt lat="44.85713" lon="-0.3802">
        <ele>59</ele>
        <time>2015-03-11T13:58:37Z</time>
      </trkpt>
      <trkpt lat="44.85706" lon="-0.38014">
        <ele>59</ele>
        <time>2015-03-11T13:58:42Z</time>
      </trkpt>
      <trkpt lat="44.857" lon="-0.38006">
        <ele>59</ele>
        <time>2015-03-11T13:58:47Z</time>
      </trkpt>
      <trkpt lat="44.8569" lon="-0.3799">
        <ele>59</ele>
        <time>2015-03-11T13:58:58Z</time>
      </trkpt>
      <trkpt lat="44.85684" lon="-0.37975">
        <ele>58</ele>
        <time>2015-03-11T13:59:14Z</time>
      </trkpt>
      <trkpt lat="44.85684" lon="-0.37976">
        <ele>59</ele>
        <time>2015-03-11T13:59:38Z</time>
      </trkpt>
      <trkpt lat="44.85686" lon="-0.37974">
        <ele>58</ele>
        <time>2015-03-11T13:59:46Z</time>
      </trkpt>
      <trkpt lat="44.85688" lon="-0.37974">
        <ele>59</ele>
        <time>2015-03-11T13:59:48Z</time>
      </trkpt>
      <trkpt lat="44.85692" lon="-0.37974">
        <ele>59</ele>
        <time>2015-03-11T13:59:52Z</time>
      </trkpt>
      <trkpt lat="44.85702" lon="-0.37972">
        <ele>59</ele>
        <time>2015-03-11T14:00:00Z</time>
      </trkpt>
      <trkpt lat="44.85709" lon="-0.37968">
        <ele>59</ele>
        <time>2015-03-11T14:00:07Z</time>
      </trkpt>
      <trkpt lat="44.85717" lon="-0.37965">
        <ele>60</ele>
        <time>2015-03-11T14:00:20Z</time>
      </trkpt>
      <trkpt lat="44.85719" lon="-0.3796">
        <ele>60</ele>
        <time>2015-03-11T14:00:23Z</time>
      </trkpt>
      <trkpt lat="44.85721" lon="-0.37955">
        <ele>60</ele>
        <time>2015-03-11T14:00:26Z</time>
      </trkpt>
      <trkpt lat="44.85729" lon="-0.37949">
        <ele>61</ele>
        <time>2015-03-11T14:00:38Z</time>
      </trkpt>
      <trkpt lat="44.85746" lon="-0.37939">
        <ele>62</ele>
        <time>2015-03-11T14:00:52Z</time>
      </trkpt>
      <trkpt lat="44.85764" lon="-0.37933">
        <ele>63</ele>
        <time>2015-03-11T14:01:08Z</time>
      </trkpt>
      <trkpt lat="44.85773" lon="-0.37932">
        <ele>64</ele>
        <time>2015-03-11T14:01:14Z</time>
      </trkpt>
      <trkpt lat="44.85781" lon="-0.37929">
        <ele>64</ele>
        <time>2015-03-11T14:01:22Z</time>
      </trkpt>
      <trkpt lat="44.85792" lon="-0.37924">
        <ele>65</ele>
        <time>2015-03-11T14:01:32Z</time>
      </trkpt>
      <trkpt lat="44.85804" lon="-0.37921">
        <ele>65</ele>
        <time>2015-03-11T14:01:38Z</time>
      </trkpt>
      <trkpt lat="44.85818" lon="-0.37918">
        <ele>65</ele>
        <time>2015-03-11T14:01:51Z</time>
      </trkpt>
      <trkpt lat="44.85822" lon="-0.37914">
        <ele>65</ele>
        <time>2015-03-11T14:02:00Z</time>
      </trkpt>
      <trkpt lat="44.85836" lon="-0.37911">
        <ele>65</ele>
        <time>2015-03-11T14:02:08Z</time>
      </trkpt>
      <trkpt lat="44.85853" lon="-0.37901">
        <ele>63</ele>
        <time>2015-03-11T14:02:21Z</time>
      </trkpt>
      <trkpt lat="44.85859" lon="-0.37898">
        <ele>63</ele>
        <time>2015-03-11T14:02:26Z</time>
      </trkpt>
      <trkpt lat="44.8587" lon="-0.37896">
        <ele>61</ele>
        <time>2015-03-11T14:02:37Z</time>
      </trkpt>
      <trkpt lat="44.85881" lon="-0.37893">
        <ele>61</ele>
        <time>2015-03-11T14:02:44Z</time>
      </trkpt>
      <trkpt lat="44.85889" lon="-0.37889">
        <ele>60</ele>
        <time>2015-03-11T14:02:51Z</time>
      </trkpt>
      <trkpt lat="44.85899" lon="-0.37887">
        <ele>60</ele>
        <time>2015-03-11T14:03:01Z</time>
      </trkpt>
      <trkpt lat="44.85904" lon="-0.37888">
        <ele>60</ele>
        <time>2015-03-11T14:03:05Z</time>
      </trkpt>
      <trkpt lat="44.85907" lon="-0.37885">
        <ele>60</ele>
        <time>2015-03-11T14:03:08Z</time>
      </trkpt>
      <trkpt lat="44.8591" lon="-0.37885">
        <ele>60</ele>
        <time>2015-03-11T14:03:11Z</time>
      </trkpt>
      <trkpt lat="44.85913" lon="-0.37885">
        <ele>59</ele>
        <time>2015-03-11T14:03:13Z</time>
      </trkpt>
      <trkpt lat="44.85923" lon="-0.37884">
        <ele>60</ele>
        <time>2015-03-11T14:03:20Z</time>
      </trkpt>
      <trkpt lat="44.85934" lon="-0.37883">
        <ele>60</ele>
        <time>2015-03-11T14:03:30Z</time>
      </trkpt>
      <trkpt lat="44.85937" lon="-0.37883">
        <ele>59</ele>
        <time>2015-03-11T14:03:32Z</time>
      </trkpt>
      <trkpt lat="44.8594" lon="-0.37882">
        <ele>59</ele>
        <time>2015-03-11T14:03:46Z</time>
      </trkpt>
      <trkpt lat="44.85941" lon="-0.37881">
        <ele>60</ele>
        <time>2015-03-11T14:04:09Z</time>
      </trkpt>
      <trkpt lat="44.85944" lon="-0.37883">
        <ele>59</ele>
        <time>2015-03-11T14:04:14Z</time>
      </trkpt>
      <trkpt lat="44.85956" lon="-0.37882">
        <ele>59</ele>
        <time>2015-03-11T14:04:26Z</time>
      </trkpt>
      <trkpt lat="44.85957" lon="-0.37882">
        <ele>59</ele>
        <time>2015-03-11T14:04:28Z</time>
      </trkpt>
      <trkpt lat="44.85963" lon="-0.37879">
        <ele>59</ele>
        <time>2015-03-11T14:04:34Z</time>
      </trkpt>
      <trkpt lat="44.85974" lon="-0.37881">
        <ele>60</ele>
        <time>2015-03-11T14:04:42Z</time>
      </trkpt>
      <trkpt lat="44.85981" lon="-0.3788">
        <ele>59</ele>
        <time>2015-03-11T14:04:47Z</time>
      </trkpt>
      <trkpt lat="44.85993" lon="-0.37879">
        <ele>60</ele>
        <time>2015-03-11T14:04:57Z</time>
      </trkpt>
      <trkpt lat="44.86" lon="-0.37878">
        <ele>61</ele>
        <time>2015-03-11T14:05:02Z</time>
      </trkpt>
      <trkpt lat="44.86005" lon="-0.37877">
        <ele>61</ele>
        <time>2015-03-11T14:05:06Z</time>
      </trkpt>
      <trkpt lat="44.86022" lon="-0.37878">
        <ele>62</ele>
        <time>2015-03-11T14:05:18Z</time>
      </trkpt>
      <trkpt lat="44.8603" lon="-0.37877">
        <ele>64</ele>
        <time>2015-03-11T14:05:29Z</time>
      </trkpt>
      <trkpt lat="44.86031" lon="-0.37877">
        <ele>64</ele>
        <time>2015-03-11T14:05:30Z</time>
      </trkpt>
      <trkpt lat="44.86035" lon="-0.37875">
        <ele>64</ele>
        <time>2015-03-11T14:05:34Z</time>
      </trkpt>
      <trkpt lat="44.86038" lon="-0.37873">
        <ele>64</ele>
        <time>2015-03-11T14:05:37Z</time>
      </trkpt>
      <trkpt lat="44.86049" lon="-0.37874">
        <ele>66</ele>
        <time>2015-03-11T14:05:45Z</time>
      </trkpt>
      <trkpt lat="44.86064" lon="-0.37873">
        <ele>66</ele>
        <time>2015-03-11T14:05:58Z</time>
      </trkpt>
      <trkpt lat="44.8607" lon="-0.37873">
        <ele>67</ele>
        <time>2015-03-11T14:06:04Z</time>
      </trkpt>
      <trkpt lat="44.86079" lon="-0.37871">
        <ele>68</ele>
        <time>2015-03-11T14:06:12Z</time>
      </trkpt>
      <trkpt lat="44.86084" lon="-0.37872">
        <ele>68</ele>
        <time>2015-03-11T14:06:16Z</time>
      </trkpt>
      <trkpt lat="44.8609" lon="-0.3787">
        <ele>69</ele>
        <time>2015-03-11T14:06:22Z</time>
      </trkpt>
      <trkpt lat="44.86097" lon="-0.37869">
        <ele>69</ele>
        <time>2015-03-11T14:06:28Z</time>
      </trkpt>
      <trkpt lat="44.86104" lon="-0.37869">
        <ele>69</ele>
        <time>2015-03-11T14:06:33Z</time>
      </trkpt>
      <trkpt lat="44.86109" lon="-0.37866">
        <ele>70</ele>
        <time>2015-03-11T14:06:38Z</time>
      </trkpt>
      <trkpt lat="44.86114" lon="-0.37866">
        <ele>70</ele>
        <time>2015-03-11T14:06:42Z</time>
      </trkpt>
      <trkpt lat="44.86126" lon="-0.37865">
        <ele>71</ele>
        <time>2015-03-11T14:06:51Z</time>
      </trkpt>
      <trkpt lat="44.86133" lon="-0.37868">
        <ele>71</ele>
        <time>2015-03-11T14:07:02Z</time>
      </trkpt>
      <trkpt lat="44.86133" lon="-0.37867">
        <ele>71</ele>
        <time>2015-03-11T14:07:07Z</time>
      </trkpt>
      <trkpt lat="44.86137" lon="-0.37858">
        <ele>71</ele>
        <time>2015-03-11T14:07:17Z</time>
      </trkpt>
      <trkpt lat="44.86138" lon="-0.37852">
        <ele>71</ele>
        <time>2015-03-11T14:07:23Z</time>
      </trkpt>
      <trkpt lat="44.86139" lon="-0.37834">
        <ele>72</ele>
        <time>2015-03-11T14:07:34Z</time>
      </trkpt>
      <trkpt lat="44.86138" lon="-0.37814">
        <ele>72</ele>
        <time>2015-03-11T14:07:47Z</time>
      </trkpt>
      <trkpt lat="44.86138" lon="-0.37806">
        <ele>71</ele>
        <time>2015-03-11T14:07:52Z</time>
      </trkpt>
      <trkpt lat="44.86137" lon="-0.37801">
        <ele>71</ele>
        <time>2015-03-11T14:07:55Z</time>
      </trkpt>
      <trkpt lat="44.86138" lon="-0.37787">
        <ele>71</ele>
        <time>2015-03-11T14:08:08Z</time>
      </trkpt>
      <trkpt lat="44.86137" lon="-0.37787">
        <ele>71</ele>
        <time>2015-03-11T14:08:26Z</time>
      </trkpt>
      <trkpt lat="44.86136" lon="-0.37786">
        <ele>71</ele>
        <time>2015-03-11T14:08:43Z</time>
      </trkpt>
      <trkpt lat="44.86139" lon="-0.37783">
        <ele>71</ele>
        <time>2015-03-11T14:08:54Z</time>
      </trkpt>
      <trkpt lat="44.86139" lon="-0.37784">
        <ele>71</ele>
        <time>2015-03-11T14:09:09Z</time>
      </trkpt>
      <trkpt lat="44.86139" lon="-0.37785">
        <ele>72</ele>
        <time>2015-03-11T14:09:21Z</time>
      </trkpt>
      <trkpt lat="44.86139" lon="-0.37784">
        <ele>72</ele>
        <time>2015-03-11T14:09:38Z</time>
      </trkpt>
      <trkpt lat="44.86139" lon="-0.37784">
        <ele>72</ele>
        <time>2015-03-11T14:10:03Z</time>
      </trkpt>
      <trkpt lat="44.86138" lon="-0.37784">
        <ele>72</ele>
        <time>2015-03-11T14:10:19Z</time>
      </trkpt>
      <trkpt lat="44.86138" lon="-0.37785">
        <ele>72</ele>
        <time>2015-03-11T14:10:39Z</time>
      </trkpt>
      <trkpt lat="44.86138" lon="-0.37784">
        <ele>72</ele>
        <time>2015-03-11T14:10:55Z</time>
      </trkpt>
      <trkpt lat="44.86138" lon="-0.37785">
        <ele>72</ele>
        <time>2015-03-11T14:11:14Z</time>
      </trkpt>
      <trkpt lat="44.86138" lon="-0.37786">
        <ele>72</ele>
        <time>2015-03-11T14:11:42Z</time>
      </trkpt>
      <trkpt lat="44.86138" lon="-0.37787">
        <ele>73</ele>
        <time>2015-03-11T14:12:08Z</time>
      </trkpt>
      <trkpt lat="44.86139" lon="-0.37785">
        <ele>73</ele>
        <time>2015-03-11T14:12:27Z</time>
      </trkpt>
      <trkpt lat="44.86139" lon="-0.37784">
        <ele>73</ele>
        <time>2015-03-11T14:13:00Z</time>
      </trkpt>
      <trkpt lat="44.86139" lon="-0.37783">
        <ele>73</ele>
        <time>2015-03-11T14:13:19Z</time>
      </trkpt>
      <trkpt lat="44.86139" lon="-0.37782">
        <ele>72</ele>
        <time>2015-03-11T14:13:28Z</time>
      </trkpt>
      <trkpt lat="44.8614" lon="-0.37781">
        <ele>73</ele>
        <time>2015-03-11T14:14:00Z</time>
      </trkpt>
      <trkpt lat="44.8614" lon="-0.37783">
        <ele>73</ele>
        <time>2015-03-11T14:14:35Z</time>
      </trkpt>
      <trkpt lat="44.86139" lon="-0.37783">
        <ele>73</ele>
        <time>2015-03-11T14:15:14Z</time>
      </trkpt>
      <trkpt lat="44.8614" lon="-0.37782">
        <ele>73</ele>
        <time>2015-03-11T14:15:59Z</time>
      </trkpt>
      <trkpt lat="44.8614" lon="-0.37782">
        <ele>73</ele>
        <time>2015-03-11T14:16:42Z</time>
      </trkpt>
      <trkpt lat="44.8614" lon="-0.37782">
        <ele>73</ele>
        <time>2015-03-11T14:17:20Z</time>
      </trkpt>
      <trkpt lat="44.8614" lon="-0.37782">
        <ele>73</ele>
        <time>2015-03-11T14:18:00Z</time>
      </trkpt>
      <trkpt lat="44.8614" lon="-0.37782">
        <ele>73</ele>
        <time>2015-03-11T14:18:39Z</time>
      </trkpt>
      <trkpt lat="44.8614" lon="-0.37783">
        <ele>73</ele>
        <time>2015-03-11T14:19:17Z</time>
      </trkpt>
      <trkpt lat="44.8614" lon="-0.37784">
        <ele>74</ele>
        <time>2015-03-11T14:19:29Z</time>
      </trkpt>
      <trkpt lat="44.8614" lon="-0.37784">
        <ele>75</ele>
        <time>2015-03-11T14:19:46Z</time>
      </trkpt>
      <trkpt lat="44.86139" lon="-0.37785">
        <ele>75</ele>
        <time>2015-03-11T14:20:04Z</time>
      </trkpt>
      <trkpt lat="44.8614" lon="-0.37785">
        <ele>75</ele>
        <time>2015-03-11T14:20:19Z</time>
      </trkpt>
      <trkpt lat="44.86139" lon="-0.37785">
        <ele>75</ele>
        <time>2015-03-11T14:20:35Z</time>
      </trkpt>
      <trkpt lat="44.86136" lon="-0.37785">
        <ele>75</ele>
        <time>2015-03-11T14:20:49Z</time>
      </trkpt>
      <trkpt lat="44.86136" lon="-0.37784">
        <ele>75</ele>
        <time>2015-03-11T14:20:50Z</time>
      </trkpt>
      <trkpt lat="44.86137" lon="-0.37774">
        <ele>75</ele>
        <time>2015-03-11T14:20:56Z</time>
      </trkpt>
      <trkpt lat="44.86136" lon="-0.37757">
        <ele>74</ele>
        <time>2015-03-11T14:21:06Z</time>
      </trkpt>
      <trkpt lat="44.86135" lon="-0.37749">
        <ele>74</ele>
        <time>2015-03-11T14:21:10Z</time>
      </trkpt>
      <trkpt lat="44.86134" lon="-0.37732">
        <ele>74</ele>
        <time>2015-03-11T14:21:20Z</time>
      </trkpt>
      <trkpt lat="44.86135" lon="-0.37729">
        <ele>74</ele>
        <time>2015-03-11T14:21:22Z</time>
      </trkpt>
      <trkpt lat="44.86134" lon="-0.37721">
        <ele>74</ele>
        <time>2015-03-11T14:21:27Z</time>
      </trkpt>
      <trkpt lat="44.86132" lon="-0.37715">
        <ele>75</ele>
        <time>2015-03-11T14:21:32Z</time>
      </trkpt>
      <trkpt lat="44.86132" lon="-0.37714">
        <ele>74</ele>
        <time>2015-03-11T14:21:34Z</time>
      </trkpt>
      <trkpt lat="44.86131" lon="-0.37705">
        <ele>74</ele>
        <time>2015-03-11T14:21:38Z</time>
      </trkpt>
      <trkpt lat="44.8613" lon="-0.37694">
        <ele>73</ele>
        <time>2015-03-11T14:21:45Z</time>
      </trkpt>
      <trkpt lat="44.86128" lon="-0.37691">
        <ele>74</ele>
        <time>2015-03-11T14:21:47Z</time>
      </trkpt>
      <trkpt lat="44.86131" lon="-0.37681">
        <ele>73</ele>
        <time>2015-03-11T14:21:53Z</time>
      </trkpt>
      <trkpt lat="44.86131" lon="-0.37671">
        <ele>74</ele>
        <time>2015-03-11T14:21:59Z</time>
      </trkpt>
      <trkpt lat="44.86139" lon="-0.37658">
        <ele>74</ele>
        <time>2015-03-11T14:22:08Z</time>
      </trkpt>
      <trkpt lat="44.86139" lon="-0.37644">
        <ele>74</ele>
        <time>2015-03-11T14:22:14Z</time>
      </trkpt>
      <trkpt lat="44.8614" lon="-0.37629">
        <ele>74</ele>
        <time>2015-03-11T14:22:22Z</time>
      </trkpt>
      <trkpt lat="44.86139" lon="-0.37617">
        <ele>74</ele>
        <time>2015-03-11T14:22:30Z</time>
      </trkpt>
      <trkpt lat="44.86137" lon="-0.37608">
        <ele>74</ele>
        <time>2015-03-11T14:22:38Z</time>
      </trkpt>
      <trkpt lat="44.86135" lon="-0.37606">
        <ele>74</ele>
        <time>2015-03-11T14:22:40Z</time>
      </trkpt>
      <trkpt lat="44.86139" lon="-0.37585">
        <ele>74</ele>
        <time>2015-03-11T14:22:51Z</time>
      </trkpt>
      <trkpt lat="44.86137" lon="-0.37574">
        <ele>73</ele>
        <time>2015-03-11T14:22:57Z</time>
      </trkpt>
      <trkpt lat="44.86137" lon="-0.37567">
        <ele>73</ele>
        <time>2015-03-11T14:23:01Z</time>
      </trkpt>
      <trkpt lat="44.8614" lon="-0.37557">
        <ele>73</ele>
        <time>2015-03-11T14:23:07Z</time>
      </trkpt>
      <trkpt lat="44.86139" lon="-0.37547">
        <ele>73</ele>
        <time>2015-03-11T14:23:13Z</time>
      </trkpt>
      <trkpt lat="44.86145" lon="-0.37532">
        <ele>73</ele>
        <time>2015-03-11T14:23:24Z</time>
      </trkpt>
      <trkpt lat="44.86151" lon="-0.3753">
        <ele>73</ele>
        <time>2015-03-11T14:23:31Z</time>
      </trkpt>
      <trkpt lat="44.86157" lon="-0.37524">
        <ele>73</ele>
        <time>2015-03-11T14:23:38Z</time>
      </trkpt>
      <trkpt lat="44.86162" lon="-0.3752">
        <ele>73</ele>
        <time>2015-03-11T14:23:42Z</time>
      </trkpt>
      <trkpt lat="44.86173" lon="-0.37516">
        <ele>72</ele>
        <time>2015-03-11T14:23:52Z</time>
      </trkpt>
      <trkpt lat="44.8618" lon="-0.37509">
        <ele>72</ele>
        <time>2015-03-11T14:23:57Z</time>
      </trkpt>
      <trkpt lat="44.86185" lon="-0.37505">
        <ele>71</ele>
        <time>2015-03-11T14:24:00Z</time>
      </trkpt>
      <trkpt lat="44.8619" lon="-0.37496">
        <ele>72</ele>
        <time>2015-03-11T14:24:05Z</time>
      </trkpt>
      <trkpt lat="44.86187" lon="-0.37479">
        <ele>70</ele>
        <time>2015-03-11T14:24:14Z</time>
      </trkpt>
      <trkpt lat="44.86189" lon="-0.37468">
        <ele>69</ele>
        <time>2015-03-11T14:24:28Z</time>
      </trkpt>
      <trkpt lat="44.8619" lon="-0.37464">
        <ele>69</ele>
        <time>2015-03-11T14:24:31Z</time>
      </trkpt>
      <trkpt lat="44.86205" lon="-0.37452">
        <ele>69</ele>
        <time>2015-03-11T14:24:46Z</time>
      </trkpt>
      <trkpt lat="44.86207" lon="-0.3745">
        <ele>69</ele>
        <time>2015-03-11T14:24:48Z</time>
      </trkpt>
      <trkpt lat="44.86224" lon="-0.37441">
        <ele>69</ele>
        <time>2015-03-11T14:25:01Z</time>
      </trkpt>
      <trkpt lat="44.86231" lon="-0.37436">
        <ele>69</ele>
        <time>2015-03-11T14:25:07Z</time>
      </trkpt>
      <trkpt lat="44.86236" lon="-0.37433">
        <ele>69</ele>
        <time>2015-03-11T14:25:12Z</time>
      </trkpt>
      <trkpt lat="44.86249" lon="-0.37423">
        <ele>70</ele>
        <time>2015-03-11T14:25:23Z</time>
      </trkpt>
      <trkpt lat="44.8626" lon="-0.37416">
        <ele>70</ele>
        <time>2015-03-11T14:25:32Z</time>
      </trkpt>
      <trkpt lat="44.86267" lon="-0.37413">
        <ele>69</ele>
        <time>2015-03-11T14:25:37Z</time>
      </trkpt>
      <trkpt lat="44.86275" lon="-0.374">
        <ele>70</ele>
        <time>2015-03-11T14:25:46Z</time>
      </trkpt>
      <trkpt lat="44.86294" lon="-0.37385">
        <ele>70</ele>
        <time>2015-03-11T14:26:02Z</time>
      </trkpt>
      <trkpt lat="44.86309" lon="-0.37374">
        <ele>70</ele>
        <time>2015-03-11T14:26:15Z</time>
      </trkpt>
      <trkpt lat="44.86313" lon="-0.3737">
        <ele>70</ele>
        <time>2015-03-11T14:26:28Z</time>
      </trkpt>
      <trkpt lat="44.86311" lon="-0.37367">
        <ele>70</ele>
        <time>2015-03-11T14:26:50Z</time>
      </trkpt>
      <trkpt lat="44.86312" lon="-0.37369">
        <ele>70</ele>
        <time>2015-03-11T14:27:06Z</time>
      </trkpt>
      <trkpt lat="44.86309" lon="-0.37347">
        <ele>70</ele>
        <time>2015-03-11T14:27:21Z</time>
      </trkpt>
      <trkpt lat="44.86303" lon="-0.3733">
        <ele>70</ele>
        <time>2015-03-11T14:27:34Z</time>
      </trkpt>
      <trkpt lat="44.86301" lon="-0.37326">
        <ele>70</ele>
        <time>2015-03-11T14:27:37Z</time>
      </trkpt>
      <trkpt lat="44.86299" lon="-0.37317">
        <ele>70</ele>
        <time>2015-03-11T14:27:42Z</time>
      </trkpt>
      <trkpt lat="44.86289" lon="-0.37287">
        <ele>69</ele>
        <time>2015-03-11T14:27:56Z</time>
      </trkpt>
      <trkpt lat="44.86282" lon="-0.3727">
        <ele>70</ele>
        <time>2015-03-11T14:28:07Z</time>
      </trkpt>
      <trkpt lat="44.86273" lon="-0.37244">
        <ele>69</ele>
        <time>2015-03-11T14:28:26Z</time>
      </trkpt>
      <trkpt lat="44.86271" lon="-0.37238">
        <ele>70</ele>
        <time>2015-03-11T14:28:29Z</time>
      </trkpt>
      <trkpt lat="44.86267" lon="-0.37229">
        <ele>69</ele>
        <time>2015-03-11T14:28:34Z</time>
      </trkpt>
      <trkpt lat="44.86265" lon="-0.37226">
        <ele>69</ele>
        <time>2015-03-11T14:28:36Z</time>
      </trkpt>
      <trkpt lat="44.8626" lon="-0.37207">
        <ele>70</ele>
        <time>2015-03-11T14:28:48Z</time>
      </trkpt>
      <trkpt lat="44.86257" lon="-0.37192">
        <ele>69</ele>
        <time>2015-03-11T14:28:54Z</time>
      </trkpt>
      <trkpt lat="44.86256" lon="-0.37184">
        <ele>70</ele>
        <time>2015-03-11T14:29:00Z</time>
      </trkpt>
      <trkpt lat="44.86252" lon="-0.37161">
        <ele>70</ele>
        <time>2015-03-11T14:29:14Z</time>
      </trkpt>
      <trkpt lat="44.86251" lon="-0.37159">
        <ele>70</ele>
        <time>2015-03-11T14:29:15Z</time>
      </trkpt>
      <trkpt lat="44.86251" lon="-0.37152">
        <ele>69</ele>
        <time>2015-03-11T14:29:19Z</time>
      </trkpt>
      <trkpt lat="44.8625" lon="-0.37145">
        <ele>70</ele>
        <time>2015-03-11T14:29:23Z</time>
      </trkpt>
      <trkpt lat="44.86247" lon="-0.37121">
        <ele>69</ele>
        <time>2015-03-11T14:29:39Z</time>
      </trkpt>
      <trkpt lat="44.86245" lon="-0.37099">
        <ele>70</ele>
        <time>2015-03-11T14:29:52Z</time>
      </trkpt>
      <trkpt lat="44.86242" lon="-0.37083">
        <ele>70</ele>
        <time>2015-03-11T14:30:02Z</time>
      </trkpt>
      <trkpt lat="44.86239" lon="-0.37072">
        <ele>70</ele>
        <time>2015-03-11T14:30:08Z</time>
      </trkpt>
      <trkpt lat="44.86238" lon="-0.37064">
        <ele>70</ele>
        <time>2015-03-11T14:30:12Z</time>
      </trkpt>
      <trkpt lat="44.86238" lon="-0.37059">
        <ele>70</ele>
        <time>2015-03-11T14:30:15Z</time>
      </trkpt>
      <trkpt lat="44.86235" lon="-0.37038">
        <ele>70</ele>
        <time>2015-03-11T14:30:27Z</time>
      </trkpt>
      <trkpt lat="44.86231" lon="-0.37011">
        <ele>70</ele>
        <time>2015-03-11T14:30:40Z</time>
      </trkpt>
      <trkpt lat="44.8623" lon="-0.37002">
        <ele>70</ele>
        <time>2015-03-11T14:30:47Z</time>
      </trkpt>
      <trkpt lat="44.86229" lon="-0.36997">
        <ele>71</ele>
        <time>2015-03-11T14:30:50Z</time>
      </trkpt>
      <trkpt lat="44.86228" lon="-0.36985">
        <ele>71</ele>
        <time>2015-03-11T14:30:57Z</time>
      </trkpt>
      <trkpt lat="44.86227" lon="-0.36977">
        <ele>71</ele>
        <time>2015-03-11T14:31:02Z</time>
      </trkpt>
      <trkpt lat="44.86227" lon="-0.36949">
        <ele>71</ele>
        <time>2015-03-11T14:31:18Z</time>
      </trkpt>
      <trkpt lat="44.86227" lon="-0.36946">
        <ele>71</ele>
        <time>2015-03-11T14:31:20Z</time>
      </trkpt>
      <trkpt lat="44.86226" lon="-0.36943">
        <ele>71</ele>
        <time>2015-03-11T14:31:22Z</time>
      </trkpt>
      <trkpt lat="44.86227" lon="-0.3694">
        <ele>71</ele>
        <time>2015-03-11T14:31:24Z</time>
      </trkpt>
      <trkpt lat="44.86228" lon="-0.36933">
        <ele>71</ele>
        <time>2015-03-11T14:31:29Z</time>
      </trkpt>
      <trkpt lat="44.86224" lon="-0.36922">
        <ele>71</ele>
        <time>2015-03-11T14:31:36Z</time>
      </trkpt>
      <trkpt lat="44.86215" lon="-0.36904">
        <ele>72</ele>
        <time>2015-03-11T14:31:49Z</time>
      </trkpt>
      <trkpt lat="44.86213" lon="-0.36899">
        <ele>72</ele>
        <time>2015-03-11T14:32:05Z</time>
      </trkpt>
      <trkpt lat="44.86212" lon="-0.36896">
        <ele>72</ele>
        <time>2015-03-11T14:32:28Z</time>
      </trkpt>
      <trkpt lat="44.86216" lon="-0.36892">
        <ele>72</ele>
        <time>2015-03-11T14:32:32Z</time>
      </trkpt>
      <trkpt lat="44.86225" lon="-0.36883">
        <ele>72</ele>
        <time>2015-03-11T14:32:41Z</time>
      </trkpt>
      <trkpt lat="44.86226" lon="-0.3688">
        <ele>71</ele>
        <time>2015-03-11T14:32:43Z</time>
      </trkpt>
      <trkpt lat="44.86227" lon="-0.36858">
        <ele>71</ele>
        <time>2015-03-11T14:32:56Z</time>
      </trkpt>
      <trkpt lat="44.86229" lon="-0.36846">
        <ele>71</ele>
        <time>2015-03-11T14:33:01Z</time>
      </trkpt>
      <trkpt lat="44.8623" lon="-0.36839">
        <ele>71</ele>
        <time>2015-03-11T14:33:04Z</time>
      </trkpt>
      <trkpt lat="44.8623" lon="-0.36833">
        <ele>71</ele>
        <time>2015-03-11T14:33:07Z</time>
      </trkpt>
      <trkpt lat="44.8623" lon="-0.3683">
        <ele>71</ele>
        <time>2015-03-11T14:33:09Z</time>
      </trkpt>
      <trkpt lat="44.86231" lon="-0.3681">
        <ele>71</ele>
        <time>2015-03-11T14:33:21Z</time>
      </trkpt>
      <trkpt lat="44.86232" lon="-0.36806">
        <ele>71</ele>
        <time>2015-03-11T14:33:24Z</time>
      </trkpt>
      <trkpt lat="44.86232" lon="-0.3678">
        <ele>71</ele>
        <time>2015-03-11T14:33:37Z</time>
      </trkpt>
      <trkpt lat="44.86234" lon="-0.3677">
        <ele>71</ele>
        <time>2015-03-11T14:33:41Z</time>
      </trkpt>
      <trkpt lat="44.86235" lon="-0.36762">
        <ele>71</ele>
        <time>2015-03-11T14:33:46Z</time>
      </trkpt>
      <trkpt lat="44.86235" lon="-0.36748">
        <ele>71</ele>
        <time>2015-03-11T14:33:52Z</time>
      </trkpt>
      <trkpt lat="44.86237" lon="-0.36739">
        <ele>71</ele>
        <time>2015-03-11T14:33:57Z</time>
      </trkpt>
      <trkpt lat="44.86238" lon="-0.3671">
        <ele>70</ele>
        <time>2015-03-11T14:34:13Z</time>
      </trkpt>
      <trkpt lat="44.86238" lon="-0.36687">
        <ele>70</ele>
        <time>2015-03-11T14:34:27Z</time>
      </trkpt>
      <trkpt lat="44.86239" lon="-0.36673">
        <ele>69</ele>
        <time>2015-03-11T14:34:38Z</time>
      </trkpt>
      <trkpt lat="44.86239" lon="-0.36663">
        <ele>69</ele>
        <time>2015-03-11T14:34:43Z</time>
      </trkpt>
      <trkpt lat="44.86237" lon="-0.36632">
        <ele>69</ele>
        <time>2015-03-11T14:34:56Z</time>
      </trkpt>
      <trkpt lat="44.86231" lon="-0.36613">
        <ele>68</ele>
        <time>2015-03-11T14:35:07Z</time>
      </trkpt>
      <trkpt lat="44.86229" lon="-0.36605">
        <ele>68</ele>
        <time>2015-03-11T14:35:12Z</time>
      </trkpt>
      <trkpt lat="44.86225" lon="-0.36592">
        <ele>69</ele>
        <time>2015-03-11T14:35:20Z</time>
      </trkpt>
      <trkpt lat="44.86219" lon="-0.3658">
        <ele>69</ele>
        <time>2015-03-11T14:35:29Z</time>
      </trkpt>
      <trkpt lat="44.86215" lon="-0.3657">
        <ele>68</ele>
        <time>2015-03-11T14:35:36Z</time>
      </trkpt>
      <trkpt lat="44.86207" lon="-0.36554">
        <ele>68</ele>
        <time>2015-03-11T14:35:47Z</time>
      </trkpt>
      <trkpt lat="44.86206" lon="-0.36551">
        <ele>68</ele>
        <time>2015-03-11T14:35:49Z</time>
      </trkpt>
      <trkpt lat="44.86202" lon="-0.36543">
        <ele>68</ele>
        <time>2015-03-11T14:35:57Z</time>
      </trkpt>
      <trkpt lat="44.86201" lon="-0.36535">
        <ele>68</ele>
        <time>2015-03-11T14:36:00Z</time>
      </trkpt>
      <trkpt lat="44.86198" lon="-0.36524">
        <ele>68</ele>
        <time>2015-03-11T14:36:06Z</time>
      </trkpt>
      <trkpt lat="44.86194" lon="-0.3651">
        <ele>67</ele>
        <time>2015-03-11T14:36:13Z</time>
      </trkpt>
      <trkpt lat="44.86189" lon="-0.36492">
        <ele>67</ele>
        <time>2015-03-11T14:36:24Z</time>
      </trkpt>
      <trkpt lat="44.86188" lon="-0.36491">
        <ele>67</ele>
        <time>2015-03-11T14:36:25Z</time>
      </trkpt>
      <trkpt lat="44.86187" lon="-0.36484">
        <ele>66</ele>
        <time>2015-03-11T14:36:30Z</time>
      </trkpt>
      <trkpt lat="44.86187" lon="-0.3648">
        <ele>66</ele>
        <time>2015-03-11T14:36:32Z</time>
      </trkpt>
      <trkpt lat="44.86185" lon="-0.3647">
        <ele>66</ele>
        <time>2015-03-11T14:36:36Z</time>
      </trkpt>
      <trkpt lat="44.86181" lon="-0.3645">
        <ele>66</ele>
        <time>2015-03-11T14:36:51Z</time>
      </trkpt>
      <trkpt lat="44.8618" lon="-0.3644">
        <ele>65</ele>
        <time>2015-03-11T14:36:57Z</time>
      </trkpt>
      <trkpt lat="44.86178" lon="-0.36419">
        <ele>65</ele>
        <time>2015-03-11T14:37:10Z</time>
      </trkpt>
      <trkpt lat="44.86176" lon="-0.36399">
        <ele>65</ele>
        <time>2015-03-11T14:37:24Z</time>
      </trkpt>
      <trkpt lat="44.86176" lon="-0.36394">
        <ele>64</ele>
        <time>2015-03-11T14:37:27Z</time>
      </trkpt>
      <trkpt lat="44.86176" lon="-0.36374">
        <ele>64</ele>
        <time>2015-03-11T14:37:37Z</time>
      </trkpt>
      <trkpt lat="44.86173" lon="-0.36351">
        <ele>64</ele>
        <time>2015-03-11T14:37:51Z</time>
      </trkpt>
      <trkpt lat="44.86173" lon="-0.36349">
        <ele>64</ele>
        <time>2015-03-11T14:37:52Z</time>
      </trkpt>
      <trkpt lat="44.86173" lon="-0.36341">
        <ele>64</ele>
        <time>2015-03-11T14:37:57Z</time>
      </trkpt>
      <trkpt lat="44.86169" lon="-0.36322">
        <ele>63</ele>
        <time>2015-03-11T14:38:10Z</time>
      </trkpt>
      <trkpt lat="44.86167" lon="-0.36304">
        <ele>63</ele>
        <time>2015-03-11T14:38:21Z</time>
      </trkpt>
      <trkpt lat="44.86163" lon="-0.36287">
        <ele>62</ele>
        <time>2015-03-11T14:38:31Z</time>
      </trkpt>
      <trkpt lat="44.86163" lon="-0.36286">
        <ele>62</ele>
        <time>2015-03-11T14:38:32Z</time>
      </trkpt>
      <trkpt lat="44.86163" lon="-0.36271">
        <ele>62</ele>
        <time>2015-03-11T14:38:38Z</time>
      </trkpt>
      <trkpt lat="44.8616" lon="-0.36252">
        <ele>61</ele>
        <time>2015-03-11T14:38:49Z</time>
      </trkpt>
      <trkpt lat="44.86159" lon="-0.36249">
        <ele>60</ele>
        <time>2015-03-11T14:38:51Z</time>
      </trkpt>
      <trkpt lat="44.86158" lon="-0.36242">
        <ele>60</ele>
        <time>2015-03-11T14:38:55Z</time>
      </trkpt>
      <trkpt lat="44.86158" lon="-0.36228">
        <ele>59</ele>
        <time>2015-03-11T14:39:04Z</time>
      </trkpt>
      <trkpt lat="44.86155" lon="-0.36219">
        <ele>58</ele>
        <time>2015-03-11T14:39:10Z</time>
      </trkpt>
      <trkpt lat="44.86155" lon="-0.36197">
        <ele>56</ele>
        <time>2015-03-11T14:39:23Z</time>
      </trkpt>
      <trkpt lat="44.86154" lon="-0.36174">
        <ele>55</ele>
        <time>2015-03-11T14:39:34Z</time>
      </trkpt>
      <trkpt lat="44.86154" lon="-0.36147">
        <ele>53</ele>
        <time>2015-03-11T14:39:46Z</time>
      </trkpt>
      <trkpt lat="44.86153" lon="-0.36139">
        <ele>53</ele>
        <time>2015-03-11T14:39:52Z</time>
      </trkpt>
      <trkpt lat="44.8615" lon="-0.3613">
        <ele>53</ele>
        <time>2015-03-11T14:39:57Z</time>
      </trkpt>
      <trkpt lat="44.86152" lon="-0.36116">
        <ele>53</ele>
        <time>2015-03-11T14:40:05Z</time>
      </trkpt>
      <trkpt lat="44.86152" lon="-0.36104">
        <ele>52</ele>
        <time>2015-03-11T14:40:12Z</time>
      </trkpt>
      <trkpt lat="44.86151" lon="-0.36088">
        <ele>51</ele>
        <time>2015-03-11T14:40:22Z</time>
      </trkpt>
      <trkpt lat="44.86151" lon="-0.36083">
        <ele>51</ele>
        <time>2015-03-11T14:40:25Z</time>
      </trkpt>
      <trkpt lat="44.86147" lon="-0.36061">
        <ele>51</ele>
        <time>2015-03-11T14:40:36Z</time>
      </trkpt>
      <trkpt lat="44.86143" lon="-0.36039">
        <ele>50</ele>
        <time>2015-03-11T14:40:48Z</time>
      </trkpt>
      <trkpt lat="44.86139" lon="-0.36021">
        <ele>50</ele>
        <time>2015-03-11T14:40:59Z</time>
      </trkpt>
      <trkpt lat="44.86132" lon="-0.36001">
        <ele>50</ele>
        <time>2015-03-11T14:41:12Z</time>
      </trkpt>
      <trkpt lat="44.86125" lon="-0.35981">
        <ele>49</ele>
        <time>2015-03-11T14:41:24Z</time>
      </trkpt>
      <trkpt lat="44.86123" lon="-0.35978">
        <ele>49</ele>
        <time>2015-03-11T14:41:26Z</time>
      </trkpt>
      <trkpt lat="44.86118" lon="-0.35961">
        <ele>49</ele>
        <time>2015-03-11T14:41:36Z</time>
      </trkpt>
      <trkpt lat="44.86114" lon="-0.35951">
        <ele>49</ele>
        <time>2015-03-11T14:41:42Z</time>
      </trkpt>
      <trkpt lat="44.8611" lon="-0.35945">
        <ele>49</ele>
        <time>2015-03-11T14:41:47Z</time>
      </trkpt>
      <trkpt lat="44.86101" lon="-0.35926">
        <ele>49</ele>
        <time>2015-03-11T14:42:00Z</time>
      </trkpt>
      <trkpt lat="44.86097" lon="-0.35915">
        <ele>48</ele>
        <time>2015-03-11T14:42:07Z</time>
      </trkpt>
      <trkpt lat="44.86086" lon="-0.35897">
        <ele>47</ele>
        <time>2015-03-11T14:42:19Z</time>
      </trkpt>
      <trkpt lat="44.86075" lon="-0.35872">
        <ele>47</ele>
        <time>2015-03-11T14:42:35Z</time>
      </trkpt>
      <trkpt lat="44.86068" lon="-0.35848">
        <ele>46</ele>
        <time>2015-03-11T14:42:49Z</time>
      </trkpt>
      <trkpt lat="44.86061" lon="-0.3583">
        <ele>46</ele>
        <time>2015-03-11T14:42:59Z</time>
      </trkpt>
      <trkpt lat="44.86057" lon="-0.35817">
        <ele>45</ele>
        <time>2015-03-11T14:43:08Z</time>
      </trkpt>
      <trkpt lat="44.86052" lon="-0.35805">
        <ele>45</ele>
        <time>2015-03-11T14:43:16Z</time>
      </trkpt>
      <trkpt lat="44.86051" lon="-0.35798">
        <ele>45</ele>
        <time>2015-03-11T14:43:20Z</time>
      </trkpt>
      <trkpt lat="44.86045" lon="-0.35782">
        <ele>45</ele>
        <time>2015-03-11T14:43:30Z</time>
      </trkpt>
      <trkpt lat="44.86044" lon="-0.35779">
        <ele>45</ele>
        <time>2015-03-11T14:43:32Z</time>
      </trkpt>
      <trkpt lat="44.86038" lon="-0.3576">
        <ele>44</ele>
        <time>2015-03-11T14:43:44Z</time>
      </trkpt>
      <trkpt lat="44.86037" lon="-0.35755">
        <ele>43</ele>
        <time>2015-03-11T14:43:49Z</time>
      </trkpt>
      <trkpt lat="44.86035" lon="-0.3575">
        <ele>43</ele>
        <time>2015-03-11T14:43:52Z</time>
      </trkpt>
      <trkpt lat="44.86035" lon="-0.35746">
        <ele>43</ele>
        <time>2015-03-11T14:43:54Z</time>
      </trkpt>
      <trkpt lat="44.86033" lon="-0.35731">
        <ele>43</ele>
        <time>2015-03-11T14:44:02Z</time>
      </trkpt>
      <trkpt lat="44.86035" lon="-0.35728">
        <ele>43</ele>
        <time>2015-03-11T14:44:05Z</time>
      </trkpt>
      <trkpt lat="44.86033" lon="-0.35712">
        <ele>42</ele>
        <time>2015-03-11T14:44:16Z</time>
      </trkpt>
      <trkpt lat="44.8603" lon="-0.35684">
        <ele>42</ele>
        <time>2015-03-11T14:44:29Z</time>
      </trkpt>
      <trkpt lat="44.86031" lon="-0.35676">
        <ele>42</ele>
        <time>2015-03-11T14:44:35Z</time>
      </trkpt>
      <trkpt lat="44.86031" lon="-0.35669">
        <ele>42</ele>
        <time>2015-03-11T14:44:38Z</time>
      </trkpt>
      <trkpt lat="44.86031" lon="-0.35636">
        <ele>41</ele>
        <time>2015-03-11T14:44:53Z</time>
      </trkpt>
      <trkpt lat="44.8603" lon="-0.35632">
        <ele>41</ele>
        <time>2015-03-11T14:44:57Z</time>
      </trkpt>
      <trkpt lat="44.8603" lon="-0.35622">
        <ele>41</ele>
        <time>2015-03-11T14:45:01Z</time>
      </trkpt>
      <trkpt lat="44.8603" lon="-0.35614">
        <ele>41</ele>
        <time>2015-03-11T14:45:05Z</time>
      </trkpt>
      <trkpt lat="44.86027" lon="-0.35602">
        <ele>41</ele>
        <time>2015-03-11T14:45:13Z</time>
      </trkpt>
      <trkpt lat="44.8603" lon="-0.35587">
        <ele>40</ele>
        <time>2015-03-11T14:45:21Z</time>
      </trkpt>
      <trkpt lat="44.86029" lon="-0.35577">
        <ele>40</ele>
        <time>2015-03-11T14:45:25Z</time>
      </trkpt>
      <trkpt lat="44.86026" lon="-0.35557">
        <ele>40</ele>
        <time>2015-03-11T14:45:36Z</time>
      </trkpt>
      <trkpt lat="44.86025" lon="-0.35547">
        <ele>39</ele>
        <time>2015-03-11T14:45:42Z</time>
      </trkpt>
      <trkpt lat="44.86021" lon="-0.35538">
        <ele>39</ele>
        <time>2015-03-11T14:45:48Z</time>
      </trkpt>
      <trkpt lat="44.86021" lon="-0.35527">
        <ele>39</ele>
        <time>2015-03-11T14:45:54Z</time>
      </trkpt>
      <trkpt lat="44.8602" lon="-0.35523">
        <ele>39</ele>
        <time>2015-03-11T14:45:56Z</time>
      </trkpt>
      <trkpt lat="44.86014" lon="-0.35498">
        <ele>38</ele>
        <time>2015-03-11T14:46:11Z</time>
      </trkpt>
      <trkpt lat="44.86011" lon="-0.35474">
        <ele>38</ele>
        <time>2015-03-11T14:46:22Z</time>
      </trkpt>
      <trkpt lat="44.86011" lon="-0.35472">
        <ele>38</ele>
        <time>2015-03-11T14:46:23Z</time>
      </trkpt>
      <trkpt lat="44.8601" lon="-0.35456">
        <ele>37</ele>
        <time>2015-03-11T14:46:33Z</time>
      </trkpt>
      <trkpt lat="44.86008" lon="-0.35433">
        <ele>36</ele>
        <time>2015-03-11T14:46:46Z</time>
      </trkpt>
      <trkpt lat="44.8601" lon="-0.35416">
        <ele>36</ele>
        <time>2015-03-11T14:46:59Z</time>
      </trkpt>
      <trkpt lat="44.86008" lon="-0.35408">
        <ele>36</ele>
        <time>2015-03-11T14:47:06Z</time>
      </trkpt>
      <trkpt lat="44.86009" lon="-0.35401">
        <ele>35</ele>
        <time>2015-03-11T14:47:11Z</time>
      </trkpt>
      <trkpt lat="44.86009" lon="-0.35387">
        <ele>35</ele>
        <time>2015-03-11T14:47:19Z</time>
      </trkpt>
      <trkpt lat="44.86009" lon="-0.35379">
        <ele>34</ele>
        <time>2015-03-11T14:47:25Z</time>
      </trkpt>
      <trkpt lat="44.86009" lon="-0.35348">
        <ele>33</ele>
        <time>2015-03-11T14:47:41Z</time>
      </trkpt>
      <trkpt lat="44.8601" lon="-0.3534">
        <ele>33</ele>
        <time>2015-03-11T14:47:45Z</time>
      </trkpt>
      <trkpt lat="44.8601" lon="-0.35319">
        <ele>32</ele>
        <time>2015-03-11T14:47:56Z</time>
      </trkpt>
      <trkpt lat="44.86009" lon="-0.35301">
        <ele>31</ele>
        <time>2015-03-11T14:48:07Z</time>
      </trkpt>
      <trkpt lat="44.86008" lon="-0.3529">
        <ele>30</ele>
        <time>2015-03-11T14:48:12Z</time>
      </trkpt>
      <trkpt lat="44.86008" lon="-0.35284">
        <ele>30</ele>
        <time>2015-03-11T14:48:15Z</time>
      </trkpt>
      <trkpt lat="44.86008" lon="-0.35259">
        <ele>29</ele>
        <time>2015-03-11T14:48:30Z</time>
      </trkpt>
      <trkpt lat="44.86009" lon="-0.3524">
        <ele>27</ele>
        <time>2015-03-11T14:48:42Z</time>
      </trkpt>
      <trkpt lat="44.86007" lon="-0.35218">
        <ele>25</ele>
        <time>2015-03-11T14:48:56Z</time>
      </trkpt>
      <trkpt lat="44.86006" lon="-0.35194">
        <ele>24</ele>
        <time>2015-03-11T14:49:09Z</time>
      </trkpt>
      <trkpt lat="44.86005" lon="-0.35175">
        <ele>23</ele>
        <time>2015-03-11T14:49:20Z</time>
      </trkpt>
      <trkpt lat="44.86006" lon="-0.35159">
        <ele>22</ele>
        <time>2015-03-11T14:49:28Z</time>
      </trkpt>
      <trkpt lat="44.86007" lon="-0.35124">
        <ele>20</ele>
        <time>2015-03-11T14:49:42Z</time>
      </trkpt>
      <trkpt lat="44.86008" lon="-0.35119">
        <ele>20</ele>
        <time>2015-03-11T14:49:45Z</time>
      </trkpt>
      <trkpt lat="44.86007" lon="-0.3511">
        <ele>19</ele>
        <time>2015-03-11T14:49:50Z</time>
      </trkpt>
      <trkpt lat="44.86007" lon="-0.35103">
        <ele>18</ele>
        <time>2015-03-11T14:49:54Z</time>
      </trkpt>
      <trkpt lat="44.86006" lon="-0.35082">
        <ele>17</ele>
        <time>2015-03-11T14:50:07Z</time>
      </trkpt>
      <trkpt lat="44.86007" lon="-0.35075">
        <ele>17</ele>
        <time>2015-03-11T14:50:19Z</time>
      </trkpt>
      <trkpt lat="44.86007" lon="-0.35076">
        <ele>16</ele>
        <time>2015-03-11T14:50:42Z</time>
      </trkpt>
      <trkpt lat="44.86005" lon="-0.35079">
        <ele>17</ele>
        <time>2015-03-11T14:50:56Z</time>
      </trkpt>
      <trkpt lat="44.86006" lon="-0.35082">
        <ele>16</ele>
        <time>2015-03-11T14:51:09Z</time>
      </trkpt>
      <trkpt lat="44.8601" lon="-0.35079">
        <ele>16</ele>
        <time>2015-03-11T14:51:15Z</time>
      </trkpt>
      <trkpt lat="44.86016" lon="-0.35078">
        <ele>16</ele>
        <time>2015-03-11T14:51:20Z</time>
      </trkpt>
      <trkpt lat="44.86033" lon="-0.3508">
        <ele>15</ele>
        <time>2015-03-11T14:51:36Z</time>
      </trkpt>
      <trkpt lat="44.86035" lon="-0.3508">
        <ele>16</ele>
        <time>2015-03-11T14:51:41Z</time>
      </trkpt>
      <trkpt lat="44.86039" lon="-0.35081">
        <ele>16</ele>
        <time>2015-03-11T14:51:44Z</time>
      </trkpt>
      <trkpt lat="44.86055" lon="-0.35077">
        <ele>17</ele>
        <time>2015-03-11T14:51:59Z</time>
      </trkpt>
      <trkpt lat="44.86076" lon="-0.35071">
        <ele>19</ele>
        <time>2015-03-11T14:52:18Z</time>
      </trkpt>
      <trkpt lat="44.86084" lon="-0.35063">
        <ele>19</ele>
        <time>2015-03-11T14:52:28Z</time>
      </trkpt>
      <trkpt lat="44.86086" lon="-0.35061">
        <ele>20</ele>
        <time>2015-03-11T14:52:30Z</time>
      </trkpt>
      <trkpt lat="44.86088" lon="-0.35061">
        <ele>20</ele>
        <time>2015-03-11T14:52:32Z</time>
      </trkpt>
      <trkpt lat="44.86101" lon="-0.35054">
        <ele>21</ele>
        <time>2015-03-11T14:52:46Z</time>
      </trkpt>
      <trkpt lat="44.86106" lon="-0.35049">
        <ele>22</ele>
        <time>2015-03-11T14:52:51Z</time>
      </trkpt>
      <trkpt lat="44.86114" lon="-0.35046">
        <ele>23</ele>
        <time>2015-03-11T14:52:59Z</time>
      </trkpt>
      <trkpt lat="44.86122" lon="-0.35046">
        <ele>24</ele>
        <time>2015-03-11T14:53:08Z</time>
      </trkpt>
      <trkpt lat="44.86125" lon="-0.35045">
        <ele>24</ele>
        <time>2015-03-11T14:53:10Z</time>
      </trkpt>
      <trkpt lat="44.86136" lon="-0.35038">
        <ele>25</ele>
        <time>2015-03-11T14:53:22Z</time>
      </trkpt>
      <trkpt lat="44.86137" lon="-0.35038">
        <ele>25</ele>
        <time>2015-03-11T14:53:23Z</time>
      </trkpt>
      <trkpt lat="44.86149" lon="-0.3503">
        <ele>27</ele>
        <time>2015-03-11T14:53:35Z</time>
      </trkpt>
      <trkpt lat="44.86159" lon="-0.35023">
        <ele>27</ele>
        <time>2015-03-11T14:53:47Z</time>
      </trkpt>
      <trkpt lat="44.86173" lon="-0.35016">
        <ele>28</ele>
        <time>2015-03-11T14:54:00Z</time>
      </trkpt>
      <trkpt lat="44.86173" lon="-0.35016">
        <ele>28</ele>
        <time>2015-03-11T14:54:01Z</time>
      </trkpt>
      <trkpt lat="44.86186" lon="-0.35009">
        <ele>29</ele>
        <time>2015-03-11T14:54:13Z</time>
      </trkpt>
      <trkpt lat="44.86192" lon="-0.35008">
        <ele>29</ele>
        <time>2015-03-11T14:54:21Z</time>
      </trkpt>
      <trkpt lat="44.86194" lon="-0.35016">
        <ele>29</ele>
        <time>2015-03-11T14:54:27Z</time>
      </trkpt>
      <trkpt lat="44.86198" lon="-0.35023">
        <ele>30</ele>
        <time>2015-03-11T14:54:34Z</time>
      </trkpt>
      <trkpt lat="44.862" lon="-0.35033">
        <ele>30</ele>
        <time>2015-03-11T14:54:39Z</time>
      </trkpt>
      <trkpt lat="44.86201" lon="-0.35042">
        <ele>31</ele>
        <time>2015-03-11T14:54:44Z</time>
      </trkpt>
      <trkpt lat="44.86208" lon="-0.35059">
        <ele>32</ele>
        <time>2015-03-11T14:54:57Z</time>
      </trkpt>
      <trkpt lat="44.86212" lon="-0.35072">
        <ele>33</ele>
        <time>2015-03-11T14:55:06Z</time>
      </trkpt>
      <trkpt lat="44.86217" lon="-0.35087">
        <ele>34</ele>
        <time>2015-03-11T14:55:18Z</time>
      </trkpt>
      <trkpt lat="44.86217" lon="-0.35091">
        <ele>34</ele>
        <time>2015-03-11T14:55:20Z</time>
      </trkpt>
      <trkpt lat="44.8622" lon="-0.35101">
        <ele>35</ele>
        <time>2015-03-11T14:55:26Z</time>
      </trkpt>
      <trkpt lat="44.86221" lon="-0.35108">
        <ele>35</ele>
        <time>2015-03-11T14:55:30Z</time>
      </trkpt>
      <trkpt lat="44.86223" lon="-0.35111">
        <ele>36</ele>
        <time>2015-03-11T14:55:32Z</time>
      </trkpt>
      <trkpt lat="44.86224" lon="-0.35116">
        <ele>37</ele>
        <time>2015-03-11T14:55:35Z</time>
      </trkpt>
      <trkpt lat="44.86229" lon="-0.35135">
        <ele>36</ele>
        <time>2015-03-11T14:55:48Z</time>
      </trkpt>
      <trkpt lat="44.86231" lon="-0.3514">
        <ele>35</ele>
        <time>2015-03-11T14:55:51Z</time>
      </trkpt>
      <trkpt lat="44.86237" lon="-0.35165">
        <ele>37</ele>
        <time>2015-03-11T14:56:05Z</time>
      </trkpt>
      <trkpt lat="44.86245" lon="-0.35189">
        <ele>37</ele>
        <time>2015-03-11T14:56:21Z</time>
      </trkpt>
      <trkpt lat="44.86249" lon="-0.352">
        <ele>38</ele>
        <time>2015-03-11T14:56:29Z</time>
      </trkpt>
      <trkpt lat="44.86249" lon="-0.35204">
        <ele>38</ele>
        <time>2015-03-11T14:56:32Z</time>
      </trkpt>
      <trkpt lat="44.86251" lon="-0.35208">
        <ele>38</ele>
        <time>2015-03-11T14:56:36Z</time>
      </trkpt>
      <trkpt lat="44.86252" lon="-0.35214">
        <ele>38</ele>
        <time>2015-03-11T14:56:41Z</time>
      </trkpt>
      <trkpt lat="44.86253" lon="-0.35221">
        <ele>39</ele>
        <time>2015-03-11T14:56:46Z</time>
      </trkpt>
      <trkpt lat="44.86255" lon="-0.35222">
        <ele>38</ele>
        <time>2015-03-11T14:56:48Z</time>
      </trkpt>
      <trkpt lat="44.86259" lon="-0.35227">
        <ele>39</ele>
        <time>2015-03-11T14:56:52Z</time>
      </trkpt>
      <trkpt lat="44.86261" lon="-0.35245">
        <ele>39</ele>
        <time>2015-03-11T14:57:02Z</time>
      </trkpt>
      <trkpt lat="44.86266" lon="-0.35262">
        <ele>40</ele>
        <time>2015-03-11T14:57:14Z</time>
      </trkpt>
      <trkpt lat="44.86268" lon="-0.35265">
        <ele>40</ele>
        <time>2015-03-11T14:57:17Z</time>
      </trkpt>
      <trkpt lat="44.86271" lon="-0.35267">
        <ele>40</ele>
        <time>2015-03-11T14:57:21Z</time>
      </trkpt>
      <trkpt lat="44.86275" lon="-0.3527">
        <ele>40</ele>
        <time>2015-03-11T14:57:25Z</time>
      </trkpt>
      <trkpt lat="44.86278" lon="-0.35275">
        <ele>41</ele>
        <time>2015-03-11T14:57:30Z</time>
      </trkpt>
      <trkpt lat="44.86287" lon="-0.3529">
        <ele>41</ele>
        <time>2015-03-11T14:57:43Z</time>
      </trkpt>
      <trkpt lat="44.86295" lon="-0.35303">
        <ele>41</ele>
        <time>2015-03-11T14:57:56Z</time>
      </trkpt>
      <trkpt lat="44.86303" lon="-0.35319">
        <ele>42</ele>
        <time>2015-03-11T14:58:08Z</time>
      </trkpt>
      <trkpt lat="44.86304" lon="-0.35333">
        <ele>41</ele>
        <time>2015-03-11T14:58:22Z</time>
      </trkpt>
      <trkpt lat="44.86304" lon="-0.35338">
        <ele>41</ele>
        <time>2015-03-11T14:58:27Z</time>
      </trkpt>
      <trkpt lat="44.86309" lon="-0.3535">
        <ele>42</ele>
        <time>2015-03-11T14:58:36Z</time>
      </trkpt>
      <trkpt lat="44.86314" lon="-0.35362">
        <ele>42</ele>
        <time>2015-03-11T14:58:44Z</time>
      </trkpt>
      <trkpt lat="44.86323" lon="-0.35373">
        <ele>43</ele>
        <time>2015-03-11T14:58:54Z</time>
      </trkpt>
      <trkpt lat="44.86324" lon="-0.35374">
        <ele>43</ele>
        <time>2015-03-11T14:58:56Z</time>
      </trkpt>
      <trkpt lat="44.86324" lon="-0.35379">
        <ele>43</ele>
        <time>2015-03-11T14:58:59Z</time>
      </trkpt>
      <trkpt lat="44.86337" lon="-0.35394">
        <ele>43</ele>
        <time>2015-03-11T14:59:11Z</time>
      </trkpt>
      <trkpt lat="44.86339" lon="-0.35397">
        <ele>43</ele>
        <time>2015-03-11T14:59:14Z</time>
      </trkpt>
      <trkpt lat="44.86345" lon="-0.35404">
        <ele>44</ele>
        <time>2015-03-11T14:59:20Z</time>
      </trkpt>
      <trkpt lat="44.86347" lon="-0.35409">
        <ele>44</ele>
        <time>2015-03-11T14:59:23Z</time>
      </trkpt>
      <trkpt lat="44.86355" lon="-0.35413">
        <ele>45</ele>
        <time>2015-03-11T14:59:28Z</time>
      </trkpt>
      <trkpt lat="44.86359" lon="-0.35418">
        <ele>45</ele>
        <time>2015-03-11T14:59:31Z</time>
      </trkpt>
      <trkpt lat="44.86362" lon="-0.3542">
        <ele>45</ele>
        <time>2015-03-11T14:59:34Z</time>
      </trkpt>
      <trkpt lat="44.86371" lon="-0.35433">
        <ele>45</ele>
        <time>2015-03-11T14:59:45Z</time>
      </trkpt>
      <trkpt lat="44.86372" lon="-0.35435">
        <ele>45</ele>
        <time>2015-03-11T14:59:46Z</time>
      </trkpt>
      <trkpt lat="44.86375" lon="-0.35447">
        <ele>46</ele>
        <time>2015-03-11T14:59:56Z</time>
      </trkpt>
      <trkpt lat="44.86384" lon="-0.35454">
        <ele>47</ele>
        <time>2015-03-11T15:00:06Z</time>
      </trkpt>
      <trkpt lat="44.86387" lon="-0.35452">
        <ele>48</ele>
        <time>2015-03-11T15:00:30Z</time>
      </trkpt>
      <trkpt lat="44.86391" lon="-0.35451">
        <ele>48</ele>
        <time>2015-03-11T15:00:53Z</time>
      </trkpt>
      <trkpt lat="44.86392" lon="-0.35451">
        <ele>47</ele>
        <time>2015-03-11T15:01:09Z</time>
      </trkpt>
      <trkpt lat="44.86395" lon="-0.3545">
        <ele>48</ele>
        <time>2015-03-11T15:01:11Z</time>
      </trkpt>
      <trkpt lat="44.8641" lon="-0.35446">
        <ele>47</ele>
        <time>2015-03-11T15:01:26Z</time>
      </trkpt>
      <trkpt lat="44.86412" lon="-0.35444">
        <ele>47</ele>
        <time>2015-03-11T15:01:29Z</time>
      </trkpt>
      <trkpt lat="44.86415" lon="-0.35443">
        <ele>47</ele>
        <time>2015-03-11T15:01:31Z</time>
      </trkpt>
      <trkpt lat="44.86424" lon="-0.35436">
        <ele>48</ele>
        <time>2015-03-11T15:01:40Z</time>
      </trkpt>
      <trkpt lat="44.86428" lon="-0.35434">
        <ele>48</ele>
        <time>2015-03-11T15:01:44Z</time>
      </trkpt>
      <trkpt lat="44.86442" lon="-0.35421">
        <ele>48</ele>
        <time>2015-03-11T15:01:57Z</time>
      </trkpt>
      <trkpt lat="44.86443" lon="-0.3542">
        <ele>48</ele>
        <time>2015-03-11T15:01:58Z</time>
      </trkpt>
      <trkpt lat="44.86449" lon="-0.35414">
        <ele>48</ele>
        <time>2015-03-11T15:02:04Z</time>
      </trkpt>
      <trkpt lat="44.86452" lon="-0.35411">
        <ele>47</ele>
        <time>2015-03-11T15:02:07Z</time>
      </trkpt>
      <trkpt lat="44.86459" lon="-0.35401">
        <ele>46</ele>
        <time>2015-03-11T15:02:15Z</time>
      </trkpt>
      <trkpt lat="44.8647" lon="-0.35391">
        <ele>47</ele>
        <time>2015-03-11T15:02:25Z</time>
      </trkpt>
      <trkpt lat="44.86474" lon="-0.35387">
        <ele>46</ele>
        <time>2015-03-11T15:02:31Z</time>
      </trkpt>
      <trkpt lat="44.86483" lon="-0.35377">
        <ele>47</ele>
        <time>2015-03-11T15:02:40Z</time>
      </trkpt>
      <trkpt lat="44.86493" lon="-0.35363">
        <ele>47</ele>
        <time>2015-03-11T15:02:53Z</time>
      </trkpt>
      <trkpt lat="44.86505" lon="-0.35351">
        <ele>48</ele>
        <time>2015-03-11T15:03:06Z</time>
      </trkpt>
      <trkpt lat="44.86515" lon="-0.35339">
        <ele>47</ele>
        <time>2015-03-11T15:03:17Z</time>
      </trkpt>
      <trkpt lat="44.86525" lon="-0.35327">
        <ele>48</ele>
        <time>2015-03-11T15:03:31Z</time>
      </trkpt>
      <trkpt lat="44.86535" lon="-0.35312">
        <ele>47</ele>
        <time>2015-03-11T15:03:44Z</time>
      </trkpt>
      <trkpt lat="44.86535" lon="-0.35311">
        <ele>48</ele>
        <time>2015-03-11T15:03:45Z</time>
      </trkpt>
      <trkpt lat="44.86544" lon="-0.35297">
        <ele>48</ele>
        <time>2015-03-11T15:03:57Z</time>
      </trkpt>
      <trkpt lat="44.86545" lon="-0.35292">
        <ele>49</ele>
        <time>2015-03-11T15:04:00Z</time>
      </trkpt>
      <trkpt lat="44.86554" lon="-0.35278">
        <ele>49</ele>
        <time>2015-03-11T15:04:13Z</time>
      </trkpt>
      <trkpt lat="44.86564" lon="-0.35258">
        <ele>50</ele>
        <time>2015-03-11T15:04:28Z</time>
      </trkpt>
      <trkpt lat="44.86565" lon="-0.3525">
        <ele>50</ele>
        <time>2015-03-11T15:04:33Z</time>
      </trkpt>
      <trkpt lat="44.86573" lon="-0.3523">
        <ele>49</ele>
        <time>2015-03-11T15:04:47Z</time>
      </trkpt>
      <trkpt lat="44.86577" lon="-0.35218">
        <ele>49</ele>
        <time>2015-03-11T15:04:58Z</time>
      </trkpt>
      <trkpt lat="44.86577" lon="-0.35216">
        <ele>49</ele>
        <time>2015-03-11T15:04:59Z</time>
      </trkpt>
      <trkpt lat="44.8658" lon="-0.35202">
        <ele>49</ele>
        <time>2015-03-11T15:05:10Z</time>
      </trkpt>
      <trkpt lat="44.8658" lon="-0.35202">
        <ele>48</ele>
        <time>2015-03-11T15:05:22Z</time>
      </trkpt>
      <trkpt lat="44.8658" lon="-0.35204">
        <ele>48</ele>
        <time>2015-03-11T15:05:41Z</time>
      </trkpt>
      <trkpt lat="44.86579" lon="-0.35205">
        <ele>48</ele>
        <time>2015-03-11T15:05:55Z</time>
      </trkpt>
      <trkpt lat="44.8658" lon="-0.35205">
        <ele>48</ele>
        <time>2015-03-11T15:06:07Z</time>
      </trkpt>
      <trkpt lat="44.8658" lon="-0.35205">
        <ele>49</ele>
        <time>2015-03-11T15:06:20Z</time>
      </trkpt>
      <trkpt lat="44.8658" lon="-0.35202">
        <ele>49</ele>
        <time>2015-03-11T15:06:33Z</time>
      </trkpt>
      <trkpt lat="44.8658" lon="-0.35201">
        <ele>49</ele>
        <time>2015-03-11T15:07:02Z</time>
      </trkpt>
      <trkpt lat="44.8658" lon="-0.35201">
        <ele>49</ele>
        <time>2015-03-11T15:07:32Z</time>
      </trkpt>
      <trkpt lat="44.86578" lon="-0.35204">
        <ele>48</ele>
        <time>2015-03-11T15:07:47Z</time>
      </trkpt>
      <trkpt lat="44.86579" lon="-0.35205">
        <ele>49</ele>
        <time>2015-03-11T15:07:57Z</time>
      </trkpt>
      <trkpt lat="44.86579" lon="-0.35205">
        <ele>49</ele>
        <time>2015-03-11T15:08:18Z</time>
      </trkpt>
      <trkpt lat="44.86579" lon="-0.35202">
        <ele>49</ele>
        <time>2015-03-11T15:08:29Z</time>
      </trkpt>
      <trkpt lat="44.86581" lon="-0.35197">
        <ele>49</ele>
        <time>2015-03-11T15:08:32Z</time>
      </trkpt>
      <trkpt lat="44.86578" lon="-0.35181">
        <ele>50</ele>
        <time>2015-03-11T15:08:45Z</time>
      </trkpt>
      <trkpt lat="44.86577" lon="-0.35182">
        <ele>49</ele>
        <time>2015-03-11T15:09:10Z</time>
      </trkpt>
      <trkpt lat="44.86579" lon="-0.35183">
        <ele>49</ele>
        <time>2015-03-11T15:09:33Z</time>
      </trkpt>
      <trkpt lat="44.86578" lon="-0.35187">
        <ele>49</ele>
        <time>2015-03-11T15:09:40Z</time>
      </trkpt>
      <trkpt lat="44.86579" lon="-0.35192">
        <ele>49</ele>
        <time>2015-03-11T15:09:43Z</time>
      </trkpt>
      <trkpt lat="44.86579" lon="-0.35206">
        <ele>49</ele>
        <time>2015-03-11T15:09:56Z</time>
      </trkpt>
      <trkpt lat="44.86579" lon="-0.35207">
        <ele>49</ele>
        <time>2015-03-11T15:10:12Z</time>
      </trkpt>
      <trkpt lat="44.86579" lon="-0.35207">
        <ele>51</ele>
        <time>2015-03-11T15:10:41Z</time>
      </trkpt>
      <trkpt lat="44.86578" lon="-0.35208">
        <ele>50</ele>
        <time>2015-03-11T15:10:55Z</time>
      </trkpt>
      <trkpt lat="44.86578" lon="-0.35213">
        <ele>50</ele>
        <time>2015-03-11T15:10:58Z</time>
      </trkpt>
      <trkpt lat="44.86574" lon="-0.35225">
        <ele>51</ele>
        <time>2015-03-11T15:11:10Z</time>
      </trkpt>
      <trkpt lat="44.86572" lon="-0.35235">
        <ele>51</ele>
        <time>2015-03-11T15:11:19Z</time>
      </trkpt>
      <trkpt lat="44.86572" lon="-0.35238">
        <ele>52</ele>
        <time>2015-03-11T15:11:21Z</time>
      </trkpt>
      <trkpt lat="44.86571" lon="-0.3524">
        <ele>51</ele>
        <time>2015-03-11T15:11:23Z</time>
      </trkpt>
      <trkpt lat="44.86567" lon="-0.35253">
        <ele>51</ele>
        <time>2015-03-11T15:11:31Z</time>
      </trkpt>
      <trkpt lat="44.86567" lon="-0.35257">
        <ele>52</ele>
        <time>2015-03-11T15:11:33Z</time>
      </trkpt>
      <trkpt lat="44.86562" lon="-0.35268">
        <ele>51</ele>
        <time>2015-03-11T15:11:39Z</time>
      </trkpt>
      <trkpt lat="44.8655" lon="-0.35295">
        <ele>50</ele>
        <time>2015-03-11T15:11:53Z</time>
      </trkpt>
      <trkpt lat="44.86546" lon="-0.35301">
        <ele>50</ele>
        <time>2015-03-11T15:11:56Z</time>
      </trkpt>
      <trkpt lat="44.86541" lon="-0.35304">
        <ele>50</ele>
        <time>2015-03-11T15:12:00Z</time>
      </trkpt>
      <trkpt lat="44.86528" lon="-0.35318">
        <ele>50</ele>
        <time>2015-03-11T15:12:14Z</time>
      </trkpt>
      <trkpt lat="44.86524" lon="-0.35324">
        <ele>50</ele>
        <time>2015-03-11T15:12:19Z</time>
      </trkpt>
      <trkpt lat="44.8652" lon="-0.35329">
        <ele>50</ele>
        <time>2015-03-11T15:12:23Z</time>
      </trkpt>
      <trkpt lat="44.86506" lon="-0.35348">
        <ele>50</ele>
        <time>2015-03-11T15:12:38Z</time>
      </trkpt>
      <trkpt lat="44.86502" lon="-0.35353">
        <ele>50</ele>
        <time>2015-03-11T15:12:42Z</time>
      </trkpt>
      <trkpt lat="44.86499" lon="-0.35356">
        <ele>50</ele>
        <time>2015-03-11T15:12:45Z</time>
      </trkpt>
      <trkpt lat="44.86484" lon="-0.35373">
        <ele>51</ele>
        <time>2015-03-11T15:12:59Z</time>
      </trkpt>
      <trkpt lat="44.8647" lon="-0.35389">
        <ele>51</ele>
        <time>2015-03-11T15:13:14Z</time>
      </trkpt>
      <trkpt lat="44.86455" lon="-0.35407">
        <ele>51</ele>
        <time>2015-03-11T15:13:29Z</time>
      </trkpt>
      <trkpt lat="44.86442" lon="-0.35421">
        <ele>51</ele>
        <time>2015-03-11T15:13:41Z</time>
      </trkpt>
      <trkpt lat="44.86437" lon="-0.35426">
        <ele>50</ele>
        <time>2015-03-11T15:13:46Z</time>
      </trkpt>
      <trkpt lat="44.86419" lon="-0.3544">
        <ele>51</ele>
        <time>2015-03-11T15:14:02Z</time>
      </trkpt>
      <trkpt lat="44.86412" lon="-0.35446">
        <ele>51</ele>
        <time>2015-03-11T15:14:08Z</time>
      </trkpt>
      <trkpt lat="44.86392" lon="-0.35453">
        <ele>52</ele>
        <time>2015-03-11T15:14:25Z</time>
      </trkpt>
      <trkpt lat="44.8639" lon="-0.35454">
        <ele>51</ele>
        <time>2015-03-11T15:14:27Z</time>
      </trkpt>
      <trkpt lat="44.86388" lon="-0.3546">
        <ele>51</ele>
        <time>2015-03-11T15:14:31Z</time>
      </trkpt>
      <trkpt lat="44.86394" lon="-0.35481">
        <ele>51</ele>
        <time>2015-03-11T15:14:42Z</time>
      </trkpt>
      <trkpt lat="44.86396" lon="-0.35484">
        <ele>51</ele>
        <time>2015-03-11T15:14:45Z</time>
      </trkpt>
      <trkpt lat="44.864" lon="-0.35488">
        <ele>51</ele>
        <time>2015-03-11T15:14:49Z</time>
      </trkpt>
      <trkpt lat="44.86408" lon="-0.35504">
        <ele>51</ele>
        <time>2015-03-11T15:15:01Z</time>
      </trkpt>
      <trkpt lat="44.86414" lon="-0.35517">
        <ele>53</ele>
        <time>2015-03-11T15:15:10Z</time>
      </trkpt>
      <trkpt lat="44.86415" lon="-0.35521">
        <ele>52</ele>
        <time>2015-03-11T15:15:13Z</time>
      </trkpt>
      <trkpt lat="44.86426" lon="-0.35537">
        <ele>53</ele>
        <time>2015-03-11T15:15:25Z</time>
      </trkpt>
      <trkpt lat="44.8643" lon="-0.35542">
        <ele>54</ele>
        <time>2015-03-11T15:15:29Z</time>
      </trkpt>
      <trkpt lat="44.86434" lon="-0.35553">
        <ele>55</ele>
        <time>2015-03-11T15:15:37Z</time>
      </trkpt>
      <trkpt lat="44.86441" lon="-0.35564">
        <ele>55</ele>
        <time>2015-03-11T15:15:46Z</time>
      </trkpt>
      <trkpt lat="44.86445" lon="-0.3557">
        <ele>55</ele>
        <time>2015-03-11T15:15:51Z</time>
      </trkpt>
      <trkpt lat="44.86448" lon="-0.35577">
        <ele>57</ele>
        <time>2015-03-11T15:15:57Z</time>
      </trkpt>
      <trkpt lat="44.8645" lon="-0.3558">
        <ele>57</ele>
        <time>2015-03-11T15:15:59Z</time>
      </trkpt>
      <trkpt lat="44.86454" lon="-0.35586">
        <ele>58</ele>
        <time>2015-03-11T15:16:04Z</time>
      </trkpt>
      <trkpt lat="44.86455" lon="-0.35587">
        <ele>58</ele>
        <time>2015-03-11T15:16:06Z</time>
      </trkpt>
      <trkpt lat="44.86461" lon="-0.35595">
        <ele>59</ele>
        <time>2015-03-11T15:16:13Z</time>
      </trkpt>
      <trkpt lat="44.86472" lon="-0.35608">
        <ele>61</ele>
        <time>2015-03-11T15:16:26Z</time>
      </trkpt>
      <trkpt lat="44.86474" lon="-0.35612">
        <ele>61</ele>
        <time>2015-03-11T15:16:29Z</time>
      </trkpt>
      <trkpt lat="44.8648" lon="-0.35616">
        <ele>62</ele>
        <time>2015-03-11T15:16:35Z</time>
      </trkpt>
      <trkpt lat="44.86484" lon="-0.35623">
        <ele>62</ele>
        <time>2015-03-11T15:16:40Z</time>
      </trkpt>
      <trkpt lat="44.86487" lon="-0.35629">
        <ele>64</ele>
        <time>2015-03-11T15:16:44Z</time>
      </trkpt>
      <trkpt lat="44.86495" lon="-0.35642">
        <ele>63</ele>
        <time>2015-03-11T15:16:54Z</time>
      </trkpt>
      <trkpt lat="44.86502" lon="-0.35652">
        <ele>62</ele>
        <time>2015-03-11T15:17:04Z</time>
      </trkpt>
      <trkpt lat="44.86505" lon="-0.35658">
        <ele>63</ele>
        <time>2015-03-11T15:17:08Z</time>
      </trkpt>
      <trkpt lat="44.86506" lon="-0.35669">
        <ele>63</ele>
        <time>2015-03-11T15:17:14Z</time>
      </trkpt>
      <trkpt lat="44.86519" lon="-0.357">
        <ele>65</ele>
        <time>2015-03-11T15:17:34Z</time>
      </trkpt>
      <trkpt lat="44.86521" lon="-0.35706">
        <ele>66</ele>
        <time>2015-03-11T15:17:38Z</time>
      </trkpt>
      <trkpt lat="44.86525" lon="-0.35714">
        <ele>65</ele>
        <time>2015-03-11T15:17:43Z</time>
      </trkpt>
      <trkpt lat="44.86531" lon="-0.35727">
        <ele>65</ele>
        <time>2015-03-11T15:17:52Z</time>
      </trkpt>
      <trkpt lat="44.86539" lon="-0.35747">
        <ele>65</ele>
        <time>2015-03-11T15:18:05Z</time>
      </trkpt>
      <trkpt lat="44.86545" lon="-0.3576">
        <ele>66</ele>
        <time>2015-03-11T15:18:14Z</time>
      </trkpt>
      <trkpt lat="44.86547" lon="-0.35767">
        <ele>66</ele>
        <time>2015-03-11T15:18:18Z</time>
      </trkpt>
      <trkpt lat="44.8655" lon="-0.35773">
        <ele>66</ele>
        <time>2015-03-11T15:18:22Z</time>
      </trkpt>
      <trkpt lat="44.86552" lon="-0.35775">
        <ele>65</ele>
        <time>2015-03-11T15:18:25Z</time>
      </trkpt>
      <trkpt lat="44.8656" lon="-0.35796">
        <ele>65</ele>
        <time>2015-03-11T15:18:37Z</time>
      </trkpt>
      <trkpt lat="44.86563" lon="-0.35801">
        <ele>64</ele>
        <time>2015-03-11T15:18:42Z</time>
      </trkpt>
      <trkpt lat="44.86571" lon="-0.35819">
        <ele>64</ele>
        <time>2015-03-11T15:18:55Z</time>
      </trkpt>
      <trkpt lat="44.86571" lon="-0.3582">
        <ele>65</ele>
        <time>2015-03-11T15:18:56Z</time>
      </trkpt>
      <trkpt lat="44.86572" lon="-0.35824">
        <ele>64</ele>
        <time>2015-03-11T15:18:58Z</time>
      </trkpt>
      <trkpt lat="44.86579" lon="-0.3584">
        <ele>64</ele>
        <time>2015-03-11T15:19:08Z</time>
      </trkpt>
      <trkpt lat="44.8658" lon="-0.35843">
        <ele>64</ele>
        <time>2015-03-11T15:19:10Z</time>
      </trkpt>
      <trkpt lat="44.86581" lon="-0.35846">
        <ele>64</ele>
        <time>2015-03-11T15:19:12Z</time>
      </trkpt>
      <trkpt lat="44.86582" lon="-0.35851">
        <ele>65</ele>
        <time>2015-03-11T15:19:15Z</time>
      </trkpt>
      <trkpt lat="44.86588" lon="-0.35863">
        <ele>66</ele>
        <time>2015-03-11T15:19:24Z</time>
      </trkpt>
      <trkpt lat="44.86589" lon="-0.3587">
        <ele>66</ele>
        <time>2015-03-11T15:19:28Z</time>
      </trkpt>
      <trkpt lat="44.86599" lon="-0.3589">
        <ele>64</ele>
        <time>2015-03-11T15:19:41Z</time>
      </trkpt>
      <trkpt lat="44.86599" lon="-0.35891">
        <ele>64</ele>
        <time>2015-03-11T15:19:42Z</time>
      </trkpt>
      <trkpt lat="44.86602" lon="-0.359">
        <ele>65</ele>
        <time>2015-03-11T15:19:48Z</time>
      </trkpt>
      <trkpt lat="44.86606" lon="-0.35909">
        <ele>64</ele>
        <time>2015-03-11T15:19:53Z</time>
      </trkpt>
      <trkpt lat="44.86614" lon="-0.35931">
        <ele>65</ele>
        <time>2015-03-11T15:20:07Z</time>
      </trkpt>
      <trkpt lat="44.8662" lon="-0.35953">
        <ele>65</ele>
        <time>2015-03-11T15:20:19Z</time>
      </trkpt>
      <trkpt lat="44.86625" lon="-0.35963">
        <ele>63</ele>
        <time>2015-03-11T15:20:27Z</time>
      </trkpt>
      <trkpt lat="44.8663" lon="-0.3598">
        <ele>63</ele>
        <time>2015-03-11T15:20:39Z</time>
      </trkpt>
      <trkpt lat="44.86632" lon="-0.35983">
        <ele>63</ele>
        <time>2015-03-11T15:20:53Z</time>
      </trkpt>
      <trkpt lat="44.86632" lon="-0.35983">
        <ele>63</ele>
        <time>2015-03-11T15:21:18Z</time>
      </trkpt>
      <trkpt lat="44.86632" lon="-0.35983">
        <ele>63</ele>
        <time>2015-03-11T15:21:31Z</time>
      </trkpt>
      <trkpt lat="44.86631" lon="-0.35984">
        <ele>63</ele>
        <time>2015-03-11T15:21:46Z</time>
      </trkpt>
      <trkpt lat="44.86632" lon="-0.35988">
        <ele>63</ele>
        <time>2015-03-11T15:21:50Z</time>
      </trkpt>
      <trkpt lat="44.86623" lon="-0.35998">
        <ele>64</ele>
        <time>2015-03-11T15:22:00Z</time>
      </trkpt>
      <trkpt lat="44.86611" lon="-0.36007">
        <ele>65</ele>
        <time>2015-03-11T15:22:13Z</time>
      </trkpt>
      <trkpt lat="44.86599" lon="-0.36017">
        <ele>65</ele>
        <time>2015-03-11T15:22:27Z</time>
      </trkpt>
      <trkpt lat="44.86592" lon="-0.36021">
        <ele>65</ele>
        <time>2015-03-11T15:22:31Z</time>
      </trkpt>
      <trkpt lat="44.86584" lon="-0.3603">
        <ele>66</ele>
        <time>2015-03-11T15:22:37Z</time>
      </trkpt>
      <trkpt lat="44.86567" lon="-0.36042">
        <ele>65</ele>
        <time>2015-03-11T15:22:50Z</time>
      </trkpt>
      <trkpt lat="44.8656" lon="-0.36046">
        <ele>66</ele>
        <time>2015-03-11T15:22:55Z</time>
      </trkpt>
      <trkpt lat="44.86546" lon="-0.36059">
        <ele>66</ele>
        <time>2015-03-11T15:23:08Z</time>
      </trkpt>
      <trkpt lat="44.86534" lon="-0.3607">
        <ele>66</ele>
        <time>2015-03-11T15:23:21Z</time>
      </trkpt>
      <trkpt lat="44.86523" lon="-0.36077">
        <ele>66</ele>
        <time>2015-03-11T15:23:32Z</time>
      </trkpt>
      <trkpt lat="44.86511" lon="-0.36087">
        <ele>67</ele>
        <time>2015-03-11T15:23:44Z</time>
      </trkpt>
      <trkpt lat="44.86507" lon="-0.36089">
        <ele>67</ele>
        <time>2015-03-11T15:23:48Z</time>
      </trkpt>
      <trkpt lat="44.86497" lon="-0.361">
        <ele>67</ele>
        <time>2015-03-11T15:24:00Z</time>
      </trkpt>
      <trkpt lat="44.86496" lon="-0.361">
        <ele>66</ele>
        <time>2015-03-11T15:24:01Z</time>
      </trkpt>
      <trkpt lat="44.86484" lon="-0.36111">
        <ele>67</ele>
        <time>2015-03-11T15:24:15Z</time>
      </trkpt>
      <trkpt lat="44.86477" lon="-0.3612">
        <ele>67</ele>
        <time>2015-03-11T15:24:21Z</time>
      </trkpt>
      <trkpt lat="44.86476" lon="-0.36128">
        <ele>67</ele>
        <time>2015-03-11T15:24:24Z</time>
      </trkpt>
      <trkpt lat="44.86482" lon="-0.36148">
        <ele>67</ele>
        <time>2015-03-11T15:24:37Z</time>
      </trkpt>
      <trkpt lat="44.86489" lon="-0.36153">
        <ele>68</ele>
        <time>2015-03-11T15:24:44Z</time>
      </trkpt>
      <trkpt lat="44.86493" lon="-0.36164">
        <ele>68</ele>
        <time>2015-03-11T15:24:50Z</time>
      </trkpt>
      <trkpt lat="44.86503" lon="-0.36181">
        <ele>68</ele>
        <time>2015-03-11T15:25:02Z</time>
      </trkpt>
      <trkpt lat="44.86508" lon="-0.36187">
        <ele>68</ele>
        <time>2015-03-11T15:25:07Z</time>
      </trkpt>
      <trkpt lat="44.86513" lon="-0.36194">
        <ele>68</ele>
        <time>2015-03-11T15:25:13Z</time>
      </trkpt>
      <trkpt lat="44.86516" lon="-0.36199">
        <ele>68</ele>
        <time>2015-03-11T15:25:16Z</time>
      </trkpt>
      <trkpt lat="44.86526" lon="-0.36214">
        <ele>68</ele>
        <time>2015-03-11T15:25:28Z</time>
      </trkpt>
      <trkpt lat="44.86529" lon="-0.36221">
        <ele>67</ele>
        <time>2015-03-11T15:25:33Z</time>
      </trkpt>
      <trkpt lat="44.86534" lon="-0.36226">
        <ele>68</ele>
        <time>2015-03-11T15:25:38Z</time>
      </trkpt>
      <trkpt lat="44.86535" lon="-0.36229">
        <ele>68</ele>
        <time>2015-03-11T15:25:40Z</time>
      </trkpt>
      <trkpt lat="44.86542" lon="-0.36237">
        <ele>68</ele>
        <time>2015-03-11T15:25:47Z</time>
      </trkpt>
      <trkpt lat="44.86543" lon="-0.3624">
        <ele>67</ele>
        <time>2015-03-11T15:25:49Z</time>
      </trkpt>
      <trkpt lat="44.86546" lon="-0.36246">
        <ele>68</ele>
        <time>2015-03-11T15:25:53Z</time>
      </trkpt>
      <trkpt lat="44.86558" lon="-0.36263">
        <ele>67</ele>
        <time>2015-03-11T15:26:06Z</time>
      </trkpt>
      <trkpt lat="44.86559" lon="-0.36265">
        <ele>67</ele>
        <time>2015-03-11T15:26:07Z</time>
      </trkpt>
      <trkpt lat="44.86564" lon="-0.36273">
        <ele>67</ele>
        <time>2015-03-11T15:26:14Z</time>
      </trkpt>
      <trkpt lat="44.86568" lon="-0.3628">
        <ele>67</ele>
        <time>2015-03-11T15:26:20Z</time>
      </trkpt>
      <trkpt lat="44.8657" lon="-0.36285">
        <ele>67</ele>
        <time>2015-03-11T15:26:24Z</time>
      </trkpt>
      <trkpt lat="44.86575" lon="-0.36292">
        <ele>66</ele>
        <time>2015-03-11T15:26:30Z</time>
      </trkpt>
      <trkpt lat="44.86584" lon="-0.36303">
        <ele>66</ele>
        <time>2015-03-11T15:26:38Z</time>
      </trkpt>
      <trkpt lat="44.8659" lon="-0.36313">
        <ele>66</ele>
        <time>2015-03-11T15:26:45Z</time>
      </trkpt>
      <trkpt lat="44.86599" lon="-0.36325">
        <ele>65</ele>
        <time>2015-03-11T15:26:54Z</time>
      </trkpt>
      <trkpt lat="44.86602" lon="-0.36328">
        <ele>65</ele>
        <time>2015-03-11T15:26:57Z</time>
      </trkpt>
      <trkpt lat="44.86612" lon="-0.36344">
        <ele>64</ele>
        <time>2015-03-11T15:27:10Z</time>
      </trkpt>
      <trkpt lat="44.86615" lon="-0.36351">
        <ele>65</ele>
        <time>2015-03-11T15:27:14Z</time>
      </trkpt>
      <trkpt lat="44.86628" lon="-0.36369">
        <ele>64</ele>
        <time>2015-03-11T15:27:28Z</time>
      </trkpt>
      <trkpt lat="44.86632" lon="-0.36377">
        <ele>64</ele>
        <time>2015-03-11T15:27:34Z</time>
      </trkpt>
      <trkpt lat="44.86635" lon="-0.36384">
        <ele>63</ele>
        <time>2015-03-11T15:27:39Z</time>
      </trkpt>
      <trkpt lat="44.86638" lon="-0.36389">
        <ele>63</ele>
        <time>2015-03-11T15:27:43Z</time>
      </trkpt>
      <trkpt lat="44.86654" lon="-0.36393">
        <ele>63</ele>
        <time>2015-03-11T15:28:01Z</time>
      </trkpt>
      <trkpt lat="44.86654" lon="-0.36392">
        <ele>63</ele>
        <time>2015-03-11T15:28:02Z</time>
      </trkpt>
      <trkpt lat="44.86656" lon="-0.3639">
        <ele>63</ele>
        <time>2015-03-11T15:28:04Z</time>
      </trkpt>
      <trkpt lat="44.86658" lon="-0.36389">
        <ele>62</ele>
        <time>2015-03-11T15:28:06Z</time>
      </trkpt>
      <trkpt lat="44.86665" lon="-0.36383">
        <ele>62</ele>
        <time>2015-03-11T15:28:13Z</time>
      </trkpt>
      <trkpt lat="44.86676" lon="-0.36378">
        <ele>62</ele>
        <time>2015-03-11T15:28:21Z</time>
      </trkpt>
      <trkpt lat="44.86687" lon="-0.36376">
        <ele>63</ele>
        <time>2015-03-11T15:28:30Z</time>
      </trkpt>
      <trkpt lat="44.8669" lon="-0.36375">
        <ele>64</ele>
        <time>2015-03-11T15:28:32Z</time>
      </trkpt>
      <trkpt lat="44.86694" lon="-0.36371">
        <ele>62</ele>
        <time>2015-03-11T15:28:37Z</time>
      </trkpt>
      <trkpt lat="44.86697" lon="-0.3637">
        <ele>63</ele>
        <time>2015-03-11T15:28:39Z</time>
      </trkpt>
      <trkpt lat="44.86704" lon="-0.36367">
        <ele>63</ele>
        <time>2015-03-11T15:28:45Z</time>
      </trkpt>
      <trkpt lat="44.86711" lon="-0.36364">
        <ele>62</ele>
        <time>2015-03-11T15:28:50Z</time>
      </trkpt>
      <trkpt lat="44.86718" lon="-0.36363">
        <ele>63</ele>
        <time>2015-03-11T15:28:55Z</time>
      </trkpt>
      <trkpt lat="44.86721" lon="-0.36361">
        <ele>63</ele>
        <time>2015-03-11T15:28:58Z</time>
      </trkpt>
      <trkpt lat="44.86723" lon="-0.36361">
        <ele>62</ele>
        <time>2015-03-11T15:29:00Z</time>
      </trkpt>
      <trkpt lat="44.86734" lon="-0.36358">
        <ele>61</ele>
        <time>2015-03-11T15:29:08Z</time>
      </trkpt>
      <trkpt lat="44.86736" lon="-0.36356">
        <ele>62</ele>
        <time>2015-03-11T15:29:10Z</time>
      </trkpt>
      <trkpt lat="44.8674" lon="-0.36356">
        <ele>62</ele>
        <time>2015-03-11T15:29:13Z</time>
      </trkpt>
      <trkpt lat="44.86742" lon="-0.36357">
        <ele>62</ele>
        <time>2015-03-11T15:29:15Z</time>
      </trkpt>
      <trkpt lat="44.86749" lon="-0.36353">
        <ele>62</ele>
        <time>2015-03-11T15:29:22Z</time>
      </trkpt>
      <trkpt lat="44.86763" lon="-0.36348">
        <ele>62</ele>
        <time>2015-03-11T15:29:37Z</time>
      </trkpt>
      <trkpt lat="44.86777" lon="-0.36343">
        <ele>63</ele>
        <time>2015-03-11T15:29:49Z</time>
      </trkpt>
      <trkpt lat="44.86793" lon="-0.36337">
        <ele>63</ele>
        <time>2015-03-11T15:30:02Z</time>
      </trkpt>
      <trkpt lat="44.86807" lon="-0.3633">
        <ele>63</ele>
        <time>2015-03-11T15:30:15Z</time>
      </trkpt>
      <trkpt lat="44.86822" lon="-0.36326">
        <ele>63</ele>
        <time>2015-03-11T15:30:27Z</time>
      </trkpt>
      <trkpt lat="44.86838" lon="-0.3632">
        <ele>63</ele>
        <time>2015-03-11T15:30:41Z</time>
      </trkpt>
      <trkpt lat="44.86853" lon="-0.36315">
        <ele>61</ele>
        <time>2015-03-11T15:30:54Z</time>
      </trkpt>
      <trkpt lat="44.86872" lon="-0.36311">
        <ele>61</ele>
        <time>2015-03-11T15:31:09Z</time>
      </trkpt>
      <trkpt lat="44.86877" lon="-0.36308">
        <ele>61</ele>
        <time>2015-03-11T15:31:14Z</time>
      </trkpt>
      <trkpt lat="44.86891" lon="-0.36304">
        <ele>59</ele>
        <time>2015-03-11T15:31:26Z</time>
      </trkpt>
      <trkpt lat="44.86909" lon="-0.36296">
        <ele>59</ele>
        <time>2015-03-11T15:31:40Z</time>
      </trkpt>
      <trkpt lat="44.86922" lon="-0.36288">
        <ele>58</ele>
        <time>2015-03-11T15:31:54Z</time>
      </trkpt>
      <trkpt lat="44.86932" lon="-0.36284">
        <ele>57</ele>
        <time>2015-03-11T15:32:03Z</time>
      </trkpt>
      <trkpt lat="44.86937" lon="-0.36285">
        <ele>57</ele>
        <time>2015-03-11T15:32:07Z</time>
      </trkpt>
      <trkpt lat="44.86943" lon="-0.3629">
        <ele>57</ele>
        <time>2015-03-11T15:32:20Z</time>
      </trkpt>
      <trkpt lat="44.86945" lon="-0.36302">
        <ele>56</ele>
        <time>2015-03-11T15:32:34Z</time>
      </trkpt>
      <trkpt lat="44.8695" lon="-0.36322">
        <ele>56</ele>
        <time>2015-03-11T15:32:45Z</time>
      </trkpt>
      <trkpt lat="44.86952" lon="-0.3633">
        <ele>56</ele>
        <time>2015-03-11T15:32:49Z</time>
      </trkpt>
      <trkpt lat="44.86955" lon="-0.3634">
        <ele>56</ele>
        <time>2015-03-11T15:32:56Z</time>
      </trkpt>
      <trkpt lat="44.86956" lon="-0.36349">
        <ele>56</ele>
        <time>2015-03-11T15:33:01Z</time>
      </trkpt>
      <trkpt lat="44.86958" lon="-0.36361">
        <ele>57</ele>
        <time>2015-03-11T15:33:10Z</time>
      </trkpt>
      <trkpt lat="44.86959" lon="-0.36379">
        <ele>56</ele>
        <time>2015-03-11T15:33:22Z</time>
      </trkpt>
      <trkpt lat="44.86963" lon="-0.36396">
        <ele>57</ele>
        <time>2015-03-11T15:33:32Z</time>
      </trkpt>
      <trkpt lat="44.86964" lon="-0.36401">
        <ele>57</ele>
        <time>2015-03-11T15:33:36Z</time>
      </trkpt>
      <trkpt lat="44.86963" lon="-0.36408">
        <ele>57</ele>
        <time>2015-03-11T15:33:43Z</time>
      </trkpt>
      <trkpt lat="44.86966" lon="-0.36417">
        <ele>57</ele>
        <time>2015-03-11T15:33:50Z</time>
      </trkpt>
      <trkpt lat="44.86971" lon="-0.36432">
        <ele>58</ele>
        <time>2015-03-11T15:34:02Z</time>
      </trkpt>
      <trkpt lat="44.86973" lon="-0.3644">
        <ele>58</ele>
        <time>2015-03-11T15:34:17Z</time>
      </trkpt>
      <trkpt lat="44.86971" lon="-0.36437">
        <ele>58</ele>
        <time>2015-03-11T15:34:37Z</time>
      </trkpt>
      <trkpt lat="44.8697" lon="-0.36424">
        <ele>57</ele>
        <time>2015-03-11T15:34:48Z</time>
      </trkpt>
      <trkpt lat="44.86968" lon="-0.3642">
        <ele>57</ele>
        <time>2015-03-11T15:34:50Z</time>
      </trkpt>
      <trkpt lat="44.86965" lon="-0.36408">
        <ele>57</ele>
        <time>2015-03-11T15:35:02Z</time>
      </trkpt>
      <trkpt lat="44.86965" lon="-0.36408">
        <ele>57</ele>
        <time>2015-03-11T15:35:32Z</time>
      </trkpt>
      <trkpt lat="44.86967" lon="-0.36417">
        <ele>57</ele>
        <time>2015-03-11T15:35:47Z</time>
      </trkpt>
      <trkpt lat="44.8697" lon="-0.36435">
        <ele>57</ele>
        <time>2015-03-11T15:36:02Z</time>
      </trkpt>
      <trkpt lat="44.8697" lon="-0.36442">
        <ele>58</ele>
        <time>2015-03-11T15:36:15Z</time>
      </trkpt>
      <trkpt lat="44.86973" lon="-0.3645">
        <ele>58</ele>
        <time>2015-03-11T15:36:29Z</time>
      </trkpt>
      <trkpt lat="44.86975" lon="-0.3645">
        <ele>57</ele>
        <time>2015-03-11T15:36:55Z</time>
      </trkpt>
      <trkpt lat="44.86976" lon="-0.36449">
        <ele>57</ele>
        <time>2015-03-11T15:37:22Z</time>
      </trkpt>
      <trkpt lat="44.86976" lon="-0.3645">
        <ele>57</ele>
        <time>2015-03-11T15:37:39Z</time>
      </trkpt>
      <trkpt lat="44.86978" lon="-0.3645">
        <ele>57</ele>
        <time>2015-03-11T15:37:56Z</time>
      </trkpt>
      <trkpt lat="44.8698" lon="-0.36453">
        <ele>57</ele>
        <time>2015-03-11T15:38:00Z</time>
      </trkpt>
      <trkpt lat="44.86999" lon="-0.36452">
        <ele>57</ele>
        <time>2015-03-11T15:38:14Z</time>
      </trkpt>
      <trkpt lat="44.87015" lon="-0.36447">
        <ele>56</ele>
        <time>2015-03-11T15:38:29Z</time>
      </trkpt>
      <trkpt lat="44.87029" lon="-0.36443">
        <ele>56</ele>
        <time>2015-03-11T15:38:41Z</time>
      </trkpt>
      <trkpt lat="44.87039" lon="-0.36442">
        <ele>55</ele>
        <time>2015-03-11T15:38:47Z</time>
      </trkpt>
      <trkpt lat="44.8705" lon="-0.36441">
        <ele>55</ele>
        <time>2015-03-11T15:39:01Z</time>
      </trkpt>
      <trkpt lat="44.87063" lon="-0.36438">
        <ele>54</ele>
        <time>2015-03-11T15:39:12Z</time>
      </trkpt>
      <trkpt lat="44.87076" lon="-0.36438">
        <ele>54</ele>
        <time>2015-03-11T15:39:24Z</time>
      </trkpt>
      <trkpt lat="44.8709" lon="-0.36442">
        <ele>53</ele>
        <time>2015-03-11T15:39:36Z</time>
      </trkpt>
      <trkpt lat="44.87092" lon="-0.36445">
        <ele>53</ele>
        <time>2015-03-11T15:39:47Z</time>
      </trkpt>
      <trkpt lat="44.87094" lon="-0.36463">
        <ele>53</ele>
        <time>2015-03-11T15:40:00Z</time>
      </trkpt>
      <trkpt lat="44.87099" lon="-0.36486">
        <ele>53</ele>
        <time>2015-03-11T15:40:13Z</time>
      </trkpt>
      <trkpt lat="44.87101" lon="-0.36507">
        <ele>53</ele>
        <time>2015-03-11T15:40:25Z</time>
      </trkpt>
      <trkpt lat="44.87104" lon="-0.36524">
        <ele>55</ele>
        <time>2015-03-11T15:40:37Z</time>
      </trkpt>
      <trkpt lat="44.87105" lon="-0.36544">
        <ele>55</ele>
        <time>2015-03-11T15:40:49Z</time>
      </trkpt>
      <trkpt lat="44.87106" lon="-0.36559">
        <ele>55</ele>
        <time>2015-03-11T15:40:56Z</time>
      </trkpt>
      <trkpt lat="44.87107" lon="-0.36578">
        <ele>55</ele>
        <time>2015-03-11T15:41:07Z</time>
      </trkpt>
      <trkpt lat="44.87104" lon="-0.36611">
        <ele>53</ele>
        <time>2015-03-11T15:41:25Z</time>
      </trkpt>
      <trkpt lat="44.87101" lon="-0.36636">
        <ele>51</ele>
        <time>2015-03-11T15:41:40Z</time>
      </trkpt>
      <trkpt lat="44.871" lon="-0.36637">
        <ele>50</ele>
        <time>2015-03-11T15:41:41Z</time>
      </trkpt>
      <trkpt lat="44.87095" lon="-0.36656">
        <ele>49</ele>
        <time>2015-03-11T15:41:51Z</time>
      </trkpt>
      <trkpt lat="44.87087" lon="-0.36679">
        <ele>48</ele>
        <time>2015-03-11T15:42:09Z</time>
      </trkpt>
      <trkpt lat="44.87081" lon="-0.36702">
        <ele>47</ele>
        <time>2015-03-11T15:42:23Z</time>
      </trkpt>
      <trkpt lat="44.87073" lon="-0.3672">
        <ele>45</ele>
        <time>2015-03-11T15:42:35Z</time>
      </trkpt>
      <trkpt lat="44.8706" lon="-0.36736">
        <ele>45</ele>
        <time>2015-03-11T15:42:51Z</time>
      </trkpt>
      <trkpt lat="44.87058" lon="-0.36739">
        <ele>44</ele>
        <time>2015-03-11T15:42:53Z</time>
      </trkpt>
      <trkpt lat="44.87043" lon="-0.36756">
        <ele>43</ele>
        <time>2015-03-11T15:43:08Z</time>
      </trkpt>
      <trkpt lat="44.87029" lon="-0.3677">
        <ele>42</ele>
        <time>2015-03-11T15:43:21Z</time>
      </trkpt>
      <trkpt lat="44.87016" lon="-0.36792">
        <ele>41</ele>
        <time>2015-03-11T15:43:34Z</time>
      </trkpt>
      <trkpt lat="44.87013" lon="-0.36797">
        <ele>41</ele>
        <time>2015-03-11T15:43:39Z</time>
      </trkpt>
      <trkpt lat="44.87006" lon="-0.36813">
        <ele>41</ele>
        <time>2015-03-11T15:43:49Z</time>
      </trkpt>
      <trkpt lat="44.87002" lon="-0.36819">
        <ele>41</ele>
        <time>2015-03-11T15:43:53Z</time>
      </trkpt>
      <trkpt lat="44.86994" lon="-0.36839">
        <ele>40</ele>
        <time>2015-03-11T15:44:06Z</time>
      </trkpt>
      <trkpt lat="44.86988" lon="-0.36865">
        <ele>39</ele>
        <time>2015-03-11T15:44:20Z</time>
      </trkpt>
      <trkpt lat="44.86982" lon="-0.36883">
        <ele>39</ele>
        <time>2015-03-11T15:44:32Z</time>
      </trkpt>
      <trkpt lat="44.86977" lon="-0.36897">
        <ele>39</ele>
        <time>2015-03-11T15:44:41Z</time>
      </trkpt>
      <trkpt lat="44.86975" lon="-0.36906">
        <ele>40</ele>
        <time>2015-03-11T15:44:46Z</time>
      </trkpt>
      <trkpt lat="44.8697" lon="-0.36934">
        <ele>39</ele>
        <time>2015-03-11T15:45:00Z</time>
      </trkpt>
      <trkpt lat="44.86969" lon="-0.36958">
        <ele>40</ele>
        <time>2015-03-11T15:45:12Z</time>
      </trkpt>
      <trkpt lat="44.86971" lon="-0.36978">
        <ele>40</ele>
        <time>2015-03-11T15:45:23Z</time>
      </trkpt>
      <trkpt lat="44.86972" lon="-0.36988">
        <ele>40</ele>
        <time>2015-03-11T15:45:28Z</time>
      </trkpt>
      <trkpt lat="44.86972" lon="-0.36995">
        <ele>41</ele>
        <time>2015-03-11T15:45:36Z</time>
      </trkpt>
      <trkpt lat="44.86971" lon="-0.36998">
        <ele>41</ele>
        <time>2015-03-11T15:45:44Z</time>
      </trkpt>
      <trkpt lat="44.86972" lon="-0.37">
        <ele>41</ele>
        <time>2015-03-11T15:46:01Z</time>
      </trkpt>
      <trkpt lat="44.86973" lon="-0.37">
        <ele>41</ele>
        <time>2015-03-11T15:46:04Z</time>
      </trkpt>
      <trkpt lat="44.8698" lon="-0.37008">
        <ele>41</ele>
        <time>2015-03-11T15:46:16Z</time>
      </trkpt>
      <trkpt lat="44.86981" lon="-0.37013">
        <ele>41</ele>
        <time>2015-03-11T15:46:20Z</time>
      </trkpt>
      <trkpt lat="44.86982" lon="-0.37019">
        <ele>41</ele>
        <time>2015-03-11T15:46:23Z</time>
      </trkpt>
      <trkpt lat="44.86982" lon="-0.37039">
        <ele>42</ele>
        <time>2015-03-11T15:46:33Z</time>
      </trkpt>
      <trkpt lat="44.86982" lon="-0.37041">
        <ele>42</ele>
        <time>2015-03-11T15:46:34Z</time>
      </trkpt>
      <trkpt lat="44.86981" lon="-0.37049">
        <ele>43</ele>
        <time>2015-03-11T15:46:38Z</time>
      </trkpt>
      <trkpt lat="44.86978" lon="-0.37055">
        <ele>43</ele>
        <time>2015-03-11T15:46:45Z</time>
      </trkpt>
      <trkpt lat="44.86978" lon="-0.37059">
        <ele>43</ele>
        <time>2015-03-11T15:46:48Z</time>
      </trkpt>
      <trkpt lat="44.86978" lon="-0.37063">
        <ele>43</ele>
        <time>2015-03-11T15:46:50Z</time>
      </trkpt>
      <trkpt lat="44.86971" lon="-0.37078">
        <ele>43</ele>
        <time>2015-03-11T15:47:00Z</time>
      </trkpt>
      <trkpt lat="44.86972" lon="-0.37081">
        <ele>44</ele>
        <time>2015-03-11T15:47:02Z</time>
      </trkpt>
      <trkpt lat="44.86974" lon="-0.37094">
        <ele>44</ele>
        <time>2015-03-11T15:47:09Z</time>
      </trkpt>
      <trkpt lat="44.86973" lon="-0.37106">
        <ele>45</ele>
        <time>2015-03-11T15:47:21Z</time>
      </trkpt>
      <trkpt lat="44.86972" lon="-0.37104">
        <ele>46</ele>
        <time>2015-03-11T15:47:35Z</time>
      </trkpt>
      <trkpt lat="44.86972" lon="-0.37104">
        <ele>45</ele>
        <time>2015-03-11T15:47:56Z</time>
      </trkpt>
      <trkpt lat="44.86973" lon="-0.37104">
        <ele>45</ele>
        <time>2015-03-11T15:48:23Z</time>
      </trkpt>
      <trkpt lat="44.86974" lon="-0.37104">
        <ele>46</ele>
        <time>2015-03-11T15:48:29Z</time>
      </trkpt>
      <trkpt lat="44.86975" lon="-0.37105">
        <ele>45</ele>
        <time>2015-03-11T15:48:46Z</time>
      </trkpt>
      <trkpt lat="44.86975" lon="-0.37104">
        <ele>45</ele>
        <time>2015-03-11T15:49:16Z</time>
      </trkpt>
      <trkpt lat="44.86975" lon="-0.37105">
        <ele>44</ele>
        <time>2015-03-11T15:49:30Z</time>
      </trkpt>
      <trkpt lat="44.86974" lon="-0.37105">
        <ele>44</ele>
        <time>2015-03-11T15:49:52Z</time>
      </trkpt>
      <trkpt lat="44.86973" lon="-0.37105">
        <ele>44</ele>
        <time>2015-03-11T15:50:18Z</time>
      </trkpt>
      <trkpt lat="44.86973" lon="-0.37105">
        <ele>46</ele>
        <time>2015-03-11T15:50:47Z</time>
      </trkpt>
      <trkpt lat="44.86973" lon="-0.37105">
        <ele>45</ele>
        <time>2015-03-11T15:51:04Z</time>
      </trkpt>
      <trkpt lat="44.86974" lon="-0.37105">
        <ele>45</ele>
        <time>2015-03-11T15:51:36Z</time>
      </trkpt>
      <trkpt lat="44.86973" lon="-0.37105">
        <ele>45</ele>
        <time>2015-03-11T15:52:04Z</time>
      </trkpt>
      <trkpt lat="44.86973" lon="-0.37105">
        <ele>45</ele>
        <time>2015-03-11T15:52:27Z</time>
      </trkpt>
      <trkpt lat="44.86972" lon="-0.37104">
        <ele>45</ele>
        <time>2015-03-11T15:52:51Z</time>
      </trkpt>
      <trkpt lat="44.86972" lon="-0.37104">
        <ele>44</ele>
        <time>2015-03-11T15:52:59Z</time>
      </trkpt>
      <trkpt lat="44.86973" lon="-0.37104">
        <ele>44</ele>
        <time>2015-03-11T15:53:00Z</time>
      </trkpt>
      <trkpt lat="44.86973" lon="-0.37117">
        <ele>45</ele>
        <time>2015-03-11T15:53:10Z</time>
      </trkpt>
      <trkpt lat="44.86971" lon="-0.37119">
        <ele>45</ele>
        <time>2015-03-11T15:53:12Z</time>
      </trkpt>
      <trkpt lat="44.8696" lon="-0.37125">
        <ele>44</ele>
        <time>2015-03-11T15:53:20Z</time>
      </trkpt>
      <trkpt lat="44.86962" lon="-0.37137">
        <ele>44</ele>
        <time>2015-03-11T15:53:24Z</time>
      </trkpt>
      <trkpt lat="44.86966" lon="-0.3714">
        <ele>44</ele>
        <time>2015-03-11T15:53:25Z</time>
      </trkpt>
      <trkpt lat="44.86971" lon="-0.37142">
        <ele>45</ele>
        <time>2015-03-11T15:53:26Z</time>
      </trkpt>
      <trkpt lat="44.86977" lon="-0.37142">
        <ele>45</ele>
        <time>2015-03-11T15:53:27Z</time>
      </trkpt>
    </trkseg>
  </trk>
</gpx>